<?xml version="1.0" encoding="UTF-8" standalone="no" ?>
<gpx xmlns="http://www.topografix.com/GPX/1/1" xmlns:xsi="http://www.w3.org/2001/XMLSchema-instance" xsi:schemaLocation="http://www.topografix.com/GPX/1/1 http://www.topografix.com/GPX/1/1/gpx.xsd" version="1.1" creator="VisuGPX - https://www.visugpx.com">
  <metadata>
    <name>Circuit 21 - Les sentiers du Beauvaisis</name>
  </metadata>
  <trk>
    <name><![CDATA[Circuit 21 - Les sentiers du Beauvaisis_1]]></name>
    <trkseg>
      <trkpt lat="49.39534" lon="2.15456">
        <ele>77.1</ele>
      </trkpt>
      <trkpt lat="49.39542" lon="2.15491">
        <ele>130.777771</ele>
        <time>2020-10-03T07:53:16.605Z</time>
      </trkpt>
      <trkpt lat="49.3955" lon="2.15532">
        <ele>128.810974</ele>
        <time>2020-10-03T07:53:22.573Z</time>
      </trkpt>
      <trkpt lat="49.39557" lon="2.15572">
        <ele>128.235962</ele>
        <time>2020-10-03T07:53:27.605Z</time>
      </trkpt>
      <trkpt lat="49.39571" lon="2.15658">
        <ele>129.661499</ele>
        <time>2020-10-03T07:53:38.599Z</time>
      </trkpt>
      <trkpt lat="49.3959" lon="2.15663">
        <ele>126.162354</ele>
        <time>2020-10-03T07:53:44.592Z</time>
      </trkpt>
      <trkpt lat="49.39607" lon="2.15651">
        <ele>125.510681</ele>
        <time>2020-10-03T07:53:49.659Z</time>
      </trkpt>
      <trkpt lat="49.39629" lon="2.15632">
        <ele>126.593689</ele>
        <time>2020-10-03T07:53:55.077Z</time>
      </trkpt>
      <trkpt lat="49.39649" lon="2.15617">
        <ele>123.102722</ele>
        <time>2020-10-03T07:54:00.577Z</time>
      </trkpt>
      <trkpt lat="49.39678" lon="2.15605">
        <ele>128.768433</ele>
        <time>2020-10-03T07:54:06.596Z</time>
      </trkpt>
      <trkpt lat="49.39705" lon="2.1562">
        <ele>122.714844</ele>
        <time>2020-10-03T07:54:11.613Z</time>
      </trkpt>
      <trkpt lat="49.39739" lon="2.15641">
        <ele>119.820007</ele>
        <time>2020-10-03T07:54:18.579Z</time>
      </trkpt>
      <trkpt lat="49.39759" lon="2.15649">
        <ele>120.594055</ele>
        <time>2020-10-03T07:54:23.593Z</time>
      </trkpt>
      <trkpt lat="49.39778" lon="2.15669">
        <ele>122.837402</ele>
        <time>2020-10-03T07:54:29.562Z</time>
      </trkpt>
      <trkpt lat="49.39792" lon="2.15684">
        <ele>145.230713</ele>
        <time>2020-10-03T07:54:34.594Z</time>
      </trkpt>
      <trkpt lat="49.39816" lon="2.15702">
        <ele>140.817627</ele>
        <time>2020-10-03T07:54:39.594Z</time>
      </trkpt>
      <trkpt lat="49.3983" lon="2.15714">
        <ele>124.776489</ele>
        <time>2020-10-03T07:54:45.627Z</time>
      </trkpt>
      <trkpt lat="49.39859" lon="2.15735">
        <ele>122.406555</ele>
        <time>2020-10-03T07:54:51.583Z</time>
      </trkpt>
      <trkpt lat="49.39879" lon="2.1575">
        <ele>123.809143</ele>
        <time>2020-10-03T07:54:56.932Z</time>
      </trkpt>
      <trkpt lat="49.39901" lon="2.15756">
        <ele>121.092041</ele>
        <time>2020-10-03T07:55:01.942Z</time>
      </trkpt>
      <trkpt lat="49.39921" lon="2.15761">
        <ele>117.074524</ele>
        <time>2020-10-03T07:55:06.965Z</time>
      </trkpt>
      <trkpt lat="49.39933" lon="2.15767">
        <ele>109.532837</ele>
        <time>2020-10-03T07:55:12.590Z</time>
      </trkpt>
      <trkpt lat="49.39948" lon="2.15776">
        <ele>112.628235</ele>
        <time>2020-10-03T07:55:17.699Z</time>
      </trkpt>
      <trkpt lat="49.39965" lon="2.15783">
        <ele>112.04895</ele>
        <time>2020-10-03T07:55:23.180Z</time>
      </trkpt>
      <trkpt lat="49.39987" lon="2.15797">
        <ele>114.524231</ele>
        <time>2020-10-03T07:55:28.361Z</time>
      </trkpt>
      <trkpt lat="49.40006" lon="2.15806">
        <ele>117.001709</ele>
        <time>2020-10-03T07:55:33.567Z</time>
      </trkpt>
      <trkpt lat="49.40027" lon="2.1582">
        <ele>120.167664</ele>
        <time>2020-10-03T07:55:39.052Z</time>
      </trkpt>
      <trkpt lat="49.40038" lon="2.15841">
        <ele>117.750488</ele>
        <time>2020-10-03T07:55:44.369Z</time>
      </trkpt>
      <trkpt lat="49.4005" lon="2.15871">
        <ele>108.460876</ele>
        <time>2020-10-03T07:55:49.563Z</time>
      </trkpt>
      <trkpt lat="49.40058" lon="2.15923">
        <ele>104.584167</ele>
        <time>2020-10-03T07:55:54.583Z</time>
      </trkpt>
      <trkpt lat="49.40066" lon="2.15985">
        <ele>68.9</ele>
      </trkpt>
      <trkpt lat="49.4007" lon="2.16045">
        <ele>65.2</ele>
      </trkpt>
      <trkpt lat="49.40071" lon="2.16075">
        <ele>63.4</ele>
      </trkpt>
      <trkpt lat="49.40073" lon="2.16101">
        <ele>62.7</ele>
      </trkpt>
      <trkpt lat="49.40077" lon="2.16116">
        <ele>62.9</ele>
      </trkpt>
      <trkpt lat="49.40073" lon="2.16125">
        <ele>63</ele>
      </trkpt>
      <trkpt lat="49.40052" lon="2.16134">
        <ele>107.668152</ele>
        <time>2020-10-03T07:56:17.601Z</time>
      </trkpt>
      <trkpt lat="49.40017" lon="2.16163">
        <ele>112.061951</ele>
        <time>2020-10-03T07:56:26.574Z</time>
      </trkpt>
      <trkpt lat="49.39995" lon="2.16168">
        <ele>101.5</ele>
        <time>2020-10-03T07:56:31.590Z</time>
      </trkpt>
      <trkpt lat="49.39963" lon="2.16181">
        <ele>101.5</ele>
        <time>2020-10-03T07:56:39.596Z</time>
      </trkpt>
      <trkpt lat="49.39943" lon="2.16197">
        <ele>101.5</ele>
        <time>2020-10-03T07:56:44.608Z</time>
      </trkpt>
      <trkpt lat="49.39921" lon="2.16214">
        <ele>101.5</ele>
        <time>2020-10-03T07:56:50.588Z</time>
      </trkpt>
      <trkpt lat="49.39895" lon="2.16241">
        <ele>101.5</ele>
        <time>2020-10-03T07:56:56.680Z</time>
      </trkpt>
      <trkpt lat="49.39871" lon="2.16267">
        <ele>101.5</ele>
        <time>2020-10-03T07:57:02.591Z</time>
      </trkpt>
      <trkpt lat="49.39828" lon="2.1632">
        <ele>101.5</ele>
        <time>2020-10-03T07:57:13.592Z</time>
      </trkpt>
      <trkpt lat="49.39807" lon="2.1634">
        <ele>101.5</ele>
        <time>2020-10-03T07:57:18.631Z</time>
      </trkpt>
      <trkpt lat="49.39781" lon="2.16358">
        <ele>101.5</ele>
        <time>2020-10-03T07:57:24.864Z</time>
      </trkpt>
      <trkpt lat="49.39757" lon="2.16375">
        <ele>101.5</ele>
        <time>2020-10-03T07:57:30.841Z</time>
      </trkpt>
      <trkpt lat="49.3974" lon="2.16382">
        <ele>112.132996</ele>
        <time>2020-10-03T07:57:36.757Z</time>
      </trkpt>
      <trkpt lat="49.39705" lon="2.16399">
        <ele>107.73645</ele>
        <time>2020-10-03T07:57:43.981Z</time>
      </trkpt>
      <trkpt lat="49.39661" lon="2.16415">
        <ele>106.870361</ele>
        <time>2020-10-03T07:57:49.840Z</time>
      </trkpt>
      <trkpt lat="49.39628" lon="2.16424">
        <ele>106.932617</ele>
        <time>2020-10-03T07:57:54.857Z</time>
      </trkpt>
      <trkpt lat="49.39595" lon="2.16429">
        <ele>104.964722</ele>
        <time>2020-10-03T07:57:59.956Z</time>
      </trkpt>
      <trkpt lat="49.39563" lon="2.16435">
        <ele>107.387939</ele>
        <time>2020-10-03T07:58:05.838Z</time>
      </trkpt>
      <trkpt lat="49.39531" lon="2.16439">
        <ele>108.710327</ele>
        <time>2020-10-03T07:58:11.858Z</time>
      </trkpt>
      <trkpt lat="49.395" lon="2.16443">
        <ele>108.882629</ele>
        <time>2020-10-03T07:58:17.863Z</time>
      </trkpt>
      <trkpt lat="49.39476" lon="2.16442">
        <ele>107.651428</ele>
        <time>2020-10-03T07:58:22.877Z</time>
      </trkpt>
      <trkpt lat="49.3944" lon="2.1645">
        <ele>107.716797</ele>
        <time>2020-10-03T07:58:29.862Z</time>
      </trkpt>
      <trkpt lat="49.39399" lon="2.16459">
        <ele>105.720276</ele>
        <time>2020-10-03T07:58:37.843Z</time>
      </trkpt>
      <trkpt lat="49.39372" lon="2.16465">
        <ele>104.504211</ele>
        <time>2020-10-03T07:58:42.878Z</time>
      </trkpt>
      <trkpt lat="49.39324" lon="2.16481">
        <ele>103.31543</ele>
        <time>2020-10-03T07:58:51.865Z</time>
      </trkpt>
      <trkpt lat="49.393" lon="2.16492">
        <ele>105.593018</ele>
        <time>2020-10-03T07:58:56.867Z</time>
      </trkpt>
      <trkpt lat="49.39277" lon="2.16504">
        <ele>104.085938</ele>
        <time>2020-10-03T07:59:01.895Z</time>
      </trkpt>
      <trkpt lat="49.39266" lon="2.16527">
        <ele>104.501099</ele>
        <time>2020-10-03T07:59:07.431Z</time>
      </trkpt>
      <trkpt lat="49.39265" lon="2.16571">
        <ele>103.881042</ele>
        <time>2020-10-03T07:59:12.847Z</time>
      </trkpt>
      <trkpt lat="49.39266" lon="2.16608">
        <ele>103.77948</ele>
        <time>2020-10-03T07:59:17.898Z</time>
      </trkpt>
      <trkpt lat="49.39266" lon="2.16651">
        <ele>103.342346</ele>
        <time>2020-10-03T07:59:23.865Z</time>
      </trkpt>
      <trkpt lat="49.39264" lon="2.16698">
        <ele>102.072998</ele>
        <time>2020-10-03T07:59:29.864Z</time>
      </trkpt>
      <trkpt lat="49.39266" lon="2.16749">
        <ele>104.024231</ele>
        <time>2020-10-03T07:59:35.886Z</time>
      </trkpt>
      <trkpt lat="49.39267" lon="2.16796">
        <ele>105.450195</ele>
        <time>2020-10-03T07:59:41.849Z</time>
      </trkpt>
      <trkpt lat="49.39269" lon="2.16836">
        <ele>106.334656</ele>
        <time>2020-10-03T07:59:46.873Z</time>
      </trkpt>
      <trkpt lat="49.39267" lon="2.16881">
        <ele>107.326904</ele>
        <time>2020-10-03T07:59:52.868Z</time>
      </trkpt>
      <trkpt lat="49.39263" lon="2.16924">
        <ele>110.775391</ele>
        <time>2020-10-03T07:59:58.868Z</time>
      </trkpt>
      <trkpt lat="49.39262" lon="2.16957">
        <ele>111.492371</ele>
        <time>2020-10-03T08:00:03.888Z</time>
      </trkpt>
      <trkpt lat="49.3926" lon="2.16999">
        <ele>112.400635</ele>
        <time>2020-10-03T08:00:09.863Z</time>
      </trkpt>
      <trkpt lat="49.39249" lon="2.17171">
        <ele>75.5</ele>
      </trkpt>
      <trkpt lat="49.39249" lon="2.17169">
        <ele>120.330322</ele>
        <time>2020-10-03T08:03:00.073Z</time>
      </trkpt>
      <trkpt lat="49.39249" lon="2.17169">
        <ele>120.330322</ele>
        <time>2020-10-03T08:03:00.073Z</time>
      </trkpt>
      <trkpt lat="49.39245" lon="2.17152">
        <ele>119.884644</ele>
        <time>2020-10-03T08:03:05.313Z</time>
      </trkpt>
      <trkpt lat="49.39246" lon="2.17131">
        <ele>119.323608</ele>
        <time>2020-10-03T08:03:10.767Z</time>
      </trkpt>
      <trkpt lat="49.39244" lon="2.17114">
        <ele>119.1745</ele>
        <time>2020-10-03T08:03:16.651Z</time>
      </trkpt>
      <trkpt lat="49.3924" lon="2.171">
        <ele>118.340088</ele>
        <time>2020-10-03T08:03:21.756Z</time>
      </trkpt>
      <trkpt lat="49.39234" lon="2.17087">
        <ele>117.395874</ele>
        <time>2020-10-03T08:03:26.808Z</time>
      </trkpt>
      <trkpt lat="49.3923" lon="2.17074">
        <ele>118.640564</ele>
        <time>2020-10-03T08:03:32.543Z</time>
      </trkpt>
      <trkpt lat="49.39225" lon="2.17062">
        <ele>125.786133</ele>
        <time>2020-10-03T08:03:37.850Z</time>
      </trkpt>
      <trkpt lat="49.39218" lon="2.17047">
        <ele>124.894348</ele>
        <time>2020-10-03T08:03:43.804Z</time>
      </trkpt>
      <trkpt lat="49.39212" lon="2.17036">
        <ele>124.47644</ele>
        <time>2020-10-03T08:03:49.870Z</time>
      </trkpt>
      <trkpt lat="49.39205" lon="2.17025">
        <ele>120.660767</ele>
        <time>2020-10-03T08:03:55.835Z</time>
      </trkpt>
      <trkpt lat="49.39197" lon="2.17013">
        <ele>122.540588</ele>
        <time>2020-10-03T08:04:01.505Z</time>
      </trkpt>
      <trkpt lat="49.39189" lon="2.16999">
        <ele>125.46637</ele>
        <time>2020-10-03T08:04:06.805Z</time>
      </trkpt>
      <trkpt lat="49.39182" lon="2.16985">
        <ele>143.19458</ele>
        <time>2020-10-03T08:04:11.869Z</time>
      </trkpt>
      <trkpt lat="49.39177" lon="2.16973">
        <ele>148.521484</ele>
        <time>2020-10-03T08:04:17.085Z</time>
      </trkpt>
      <trkpt lat="49.39172" lon="2.16958">
        <ele>134.115723</ele>
        <time>2020-10-03T08:04:22.286Z</time>
      </trkpt>
      <trkpt lat="49.39167" lon="2.16946">
        <ele>129.930054</ele>
        <time>2020-10-03T08:04:27.576Z</time>
      </trkpt>
      <trkpt lat="49.39163" lon="2.16943">
        <ele>129.681946</ele>
        <time>2020-10-03T08:04:32.854Z</time>
      </trkpt>
      <trkpt lat="49.39158" lon="2.16959">
        <ele>129.904785</ele>
        <time>2020-10-03T08:04:42.892Z</time>
      </trkpt>
      <trkpt lat="49.39155" lon="2.16975">
        <ele>153.305603</ele>
        <time>2020-10-03T08:04:48.875Z</time>
      </trkpt>
      <trkpt lat="49.39154" lon="2.16994">
        <ele>139.872864</ele>
        <time>2020-10-03T08:04:54.660Z</time>
      </trkpt>
      <trkpt lat="49.3915" lon="2.17008">
        <ele>151.269958</ele>
        <time>2020-10-03T08:04:59.843Z</time>
      </trkpt>
      <trkpt lat="49.39148" lon="2.17028">
        <ele>140.514526</ele>
        <time>2020-10-03T08:05:05.877Z</time>
      </trkpt>
      <trkpt lat="49.39145" lon="2.17049">
        <ele>139.842712</ele>
        <time>2020-10-03T08:05:12.925Z</time>
      </trkpt>
      <trkpt lat="49.39144" lon="2.17078">
        <ele>139.087952</ele>
        <time>2020-10-03T08:05:21.843Z</time>
      </trkpt>
      <trkpt lat="49.39144" lon="2.17094">
        <ele>140.81366</ele>
        <time>2020-10-03T08:05:27.866Z</time>
      </trkpt>
      <trkpt lat="49.39142" lon="2.17111">
        <ele>142.753235</ele>
        <time>2020-10-03T08:05:33.846Z</time>
      </trkpt>
      <trkpt lat="49.39141" lon="2.17129">
        <ele>141.143127</ele>
        <time>2020-10-03T08:05:39.438Z</time>
      </trkpt>
      <trkpt lat="49.39138" lon="2.17143">
        <ele>138.389099</ele>
        <time>2020-10-03T08:05:44.833Z</time>
      </trkpt>
      <trkpt lat="49.39135" lon="2.17161">
        <ele>141.806458</ele>
        <time>2020-10-03T08:05:49.867Z</time>
      </trkpt>
      <trkpt lat="49.39131" lon="2.17179">
        <ele>143.778687</ele>
        <time>2020-10-03T08:05:55.326Z</time>
      </trkpt>
      <trkpt lat="49.39126" lon="2.17194">
        <ele>146.047791</ele>
        <time>2020-10-03T08:06:00.327Z</time>
      </trkpt>
      <trkpt lat="49.3912" lon="2.17215">
        <ele>149.030273</ele>
        <time>2020-10-03T08:06:05.880Z</time>
      </trkpt>
      <trkpt lat="49.39109" lon="2.17245">
        <ele>147.095459</ele>
        <time>2020-10-03T08:06:16.199Z</time>
      </trkpt>
      <trkpt lat="49.39106" lon="2.17261">
        <ele>142.221985</ele>
        <time>2020-10-03T08:06:21.865Z</time>
      </trkpt>
      <trkpt lat="49.39104" lon="2.1728">
        <ele>142.760742</ele>
        <time>2020-10-03T08:06:27.484Z</time>
      </trkpt>
      <trkpt lat="49.39101" lon="2.173">
        <ele>145.93988</ele>
        <time>2020-10-03T08:06:32.851Z</time>
      </trkpt>
      <trkpt lat="49.39099" lon="2.17325">
        <ele>144.451294</ele>
        <time>2020-10-03T08:06:38.844Z</time>
      </trkpt>
      <trkpt lat="49.39095" lon="2.17346">
        <ele>148.543762</ele>
        <time>2020-10-03T08:06:43.844Z</time>
      </trkpt>
      <trkpt lat="49.3909" lon="2.17368">
        <ele>147.370911</ele>
        <time>2020-10-03T08:06:49.763Z</time>
      </trkpt>
      <trkpt lat="49.39084" lon="2.17391">
        <ele>149.179626</ele>
        <time>2020-10-03T08:06:54.851Z</time>
      </trkpt>
      <trkpt lat="49.39076" lon="2.17413">
        <ele>146.837219</ele>
        <time>2020-10-03T08:07:00.724Z</time>
      </trkpt>
      <trkpt lat="49.39069" lon="2.17423">
        <ele>145.938599</ele>
        <time>2020-10-03T08:07:05.843Z</time>
      </trkpt>
      <trkpt lat="49.39067" lon="2.17426">
        <ele>147.149475</ele>
        <time>2020-10-03T08:07:11.866Z</time>
      </trkpt>
      <trkpt lat="49.39061" lon="2.17434">
        <ele>147.697021</ele>
        <time>2020-10-03T08:07:17.603Z</time>
      </trkpt>
      <trkpt lat="49.39051" lon="2.17443">
        <ele>145.659668</ele>
        <time>2020-10-03T08:07:22.767Z</time>
      </trkpt>
      <trkpt lat="49.39036" lon="2.17454">
        <ele>145.518127</ele>
        <time>2020-10-03T08:07:27.822Z</time>
      </trkpt>
      <trkpt lat="49.39022" lon="2.17454">
        <ele>146.072876</ele>
        <time>2020-10-03T08:07:32.868Z</time>
      </trkpt>
      <trkpt lat="49.3901" lon="2.17453">
        <ele>145.957214</ele>
        <time>2020-10-03T08:07:37.948Z</time>
      </trkpt>
      <trkpt lat="49.38997" lon="2.17452">
        <ele>147.243774</ele>
        <time>2020-10-03T08:07:43.373Z</time>
      </trkpt>
      <trkpt lat="49.38986" lon="2.17451">
        <ele>147.691528</ele>
        <time>2020-10-03T08:07:48.884Z</time>
      </trkpt>
      <trkpt lat="49.38975" lon="2.17448">
        <ele>147.320557</ele>
        <time>2020-10-03T08:07:54.454Z</time>
      </trkpt>
      <trkpt lat="49.38961" lon="2.17444">
        <ele>147.800781</ele>
        <time>2020-10-03T08:07:59.911Z</time>
      </trkpt>
      <trkpt lat="49.38948" lon="2.1744">
        <ele>148.817749</ele>
        <time>2020-10-03T08:08:05.684Z</time>
      </trkpt>
      <trkpt lat="49.38937" lon="2.17436">
        <ele>149.005493</ele>
        <time>2020-10-03T08:08:10.701Z</time>
      </trkpt>
      <trkpt lat="49.38927" lon="2.17431">
        <ele>148.828003</ele>
        <time>2020-10-03T08:08:15.901Z</time>
      </trkpt>
      <trkpt lat="49.38914" lon="2.17424">
        <ele>149.58728</ele>
        <time>2020-10-03T08:08:21.825Z</time>
      </trkpt>
      <trkpt lat="49.38903" lon="2.17417">
        <ele>148.467896</ele>
        <time>2020-10-03T08:08:27.071Z</time>
      </trkpt>
      <trkpt lat="49.38893" lon="2.1741">
        <ele>148.739624</ele>
        <time>2020-10-03T08:08:32.258Z</time>
      </trkpt>
      <trkpt lat="49.38881" lon="2.17401">
        <ele>147.508789</ele>
        <time>2020-10-03T08:08:37.791Z</time>
      </trkpt>
      <trkpt lat="49.38872" lon="2.17392">
        <ele>145.594421</ele>
        <time>2020-10-03T08:08:42.875Z</time>
      </trkpt>
      <trkpt lat="49.38859" lon="2.17386">
        <ele>145.040039</ele>
        <time>2020-10-03T08:08:48.828Z</time>
      </trkpt>
      <trkpt lat="49.38845" lon="2.17381">
        <ele>144.872253</ele>
        <time>2020-10-03T08:08:54.310Z</time>
      </trkpt>
      <trkpt lat="49.38832" lon="2.17381">
        <ele>144.848206</ele>
        <time>2020-10-03T08:08:59.865Z</time>
      </trkpt>
      <trkpt lat="49.38806" lon="2.17388">
        <ele>143.982544</ele>
        <time>2020-10-03T08:09:08.642Z</time>
      </trkpt>
      <trkpt lat="49.38786" lon="2.17393">
        <ele>143.514893</ele>
        <time>2020-10-03T08:09:15.610Z</time>
      </trkpt>
      <trkpt lat="49.38764" lon="2.17399">
        <ele>143.118835</ele>
        <time>2020-10-03T08:09:20.863Z</time>
      </trkpt>
      <trkpt lat="49.38736" lon="2.1741">
        <ele>141.853394</ele>
        <time>2020-10-03T08:09:26.858Z</time>
      </trkpt>
      <trkpt lat="49.38714" lon="2.17419">
        <ele>141.291443</ele>
        <time>2020-10-03T08:09:32.364Z</time>
      </trkpt>
      <trkpt lat="49.38689" lon="2.17436">
        <ele>139.64502</ele>
        <time>2020-10-03T08:09:38.654Z</time>
      </trkpt>
      <trkpt lat="49.3866" lon="2.17467">
        <ele>138.467834</ele>
        <time>2020-10-03T08:09:47.846Z</time>
      </trkpt>
      <trkpt lat="49.38643" lon="2.17502">
        <ele>134.522217</ele>
        <time>2020-10-03T08:09:52.860Z</time>
      </trkpt>
      <trkpt lat="49.38626" lon="2.17535">
        <ele>133.796082</ele>
        <time>2020-10-03T08:09:57.865Z</time>
      </trkpt>
      <trkpt lat="49.38609" lon="2.17564">
        <ele>130.321716</ele>
        <time>2020-10-03T08:10:02.882Z</time>
      </trkpt>
      <trkpt lat="49.38585" lon="2.176">
        <ele>128.288086</ele>
        <time>2020-10-03T08:10:08.862Z</time>
      </trkpt>
      <trkpt lat="49.38566" lon="2.17628">
        <ele>124.309021</ele>
        <time>2020-10-03T08:10:13.904Z</time>
      </trkpt>
      <trkpt lat="49.38552" lon="2.17663">
        <ele>122.705811</ele>
        <time>2020-10-03T08:10:19.862Z</time>
      </trkpt>
      <trkpt lat="49.38552" lon="2.17687">
        <ele>123.622131</ele>
        <time>2020-10-03T08:10:24.937Z</time>
      </trkpt>
      <trkpt lat="49.38565" lon="2.17715">
        <ele>119.940735</ele>
        <time>2020-10-03T08:10:30.839Z</time>
      </trkpt>
      <trkpt lat="49.38582" lon="2.17731">
        <ele>119.261658</ele>
        <time>2020-10-03T08:10:35.865Z</time>
      </trkpt>
      <trkpt lat="49.38605" lon="2.17743">
        <ele>120.833252</ele>
        <time>2020-10-03T08:10:41.552Z</time>
      </trkpt>
      <trkpt lat="49.38637" lon="2.17754">
        <ele>118.452454</ele>
        <time>2020-10-03T08:10:46.852Z</time>
      </trkpt>
      <trkpt lat="49.38663" lon="2.17764">
        <ele>117.314819</ele>
        <time>2020-10-03T08:10:51.867Z</time>
      </trkpt>
      <trkpt lat="49.38727" lon="2.17802">
        <ele>117.646423</ele>
        <time>2020-10-03T08:11:02.841Z</time>
      </trkpt>
      <trkpt lat="49.38754" lon="2.17823">
        <ele>114.462036</ele>
        <time>2020-10-03T08:11:07.869Z</time>
      </trkpt>
      <trkpt lat="49.38782" lon="2.17847">
        <ele>113.036743</ele>
        <time>2020-10-03T08:11:13.900Z</time>
      </trkpt>
      <trkpt lat="49.38794" lon="2.17859">
        <ele>66.9</ele>
      </trkpt>
      <trkpt lat="49.38797" lon="2.17909">
        <ele>66.6</ele>
      </trkpt>
      <trkpt lat="49.38802" lon="2.17932">
        <ele>67.3</ele>
      </trkpt>
      <trkpt lat="49.38802" lon="2.17957">
        <ele>113.510254</ele>
        <time>2020-10-03T08:11:34.869Z</time>
      </trkpt>
      <trkpt lat="49.38802" lon="2.17983">
        <ele>116.242432</ele>
        <time>2020-10-03T08:11:40.088Z</time>
      </trkpt>
      <trkpt lat="49.38797" lon="2.18005">
        <ele>116.514282</ele>
        <time>2020-10-03T08:11:45.569Z</time>
      </trkpt>
      <trkpt lat="49.38786" lon="2.18019">
        <ele>112.24707</ele>
        <time>2020-10-03T08:11:50.852Z</time>
      </trkpt>
      <trkpt lat="49.38773" lon="2.18025">
        <ele>111.163452</ele>
        <time>2020-10-03T08:11:56.355Z</time>
      </trkpt>
      <trkpt lat="49.38764" lon="2.18034">
        <ele>110.228577</ele>
        <time>2020-10-03T08:12:01.859Z</time>
      </trkpt>
      <trkpt lat="49.38761" lon="2.18054">
        <ele>74.6</ele>
      </trkpt>
      <trkpt lat="49.38756" lon="2.18044">
        <ele>74.3</ele>
      </trkpt>
      <trkpt lat="49.3875" lon="2.18037">
        <ele>114.719788</ele>
        <time>2020-10-03T08:12:28.778Z</time>
      </trkpt>
      <trkpt lat="49.38739" lon="2.18034">
        <ele>119.169067</ele>
        <time>2020-10-03T08:12:34.147Z</time>
      </trkpt>
      <trkpt lat="49.38729" lon="2.1803">
        <ele>122.148315</ele>
        <time>2020-10-03T08:12:39.692Z</time>
      </trkpt>
      <trkpt lat="49.3872" lon="2.18028">
        <ele>120.832214</ele>
        <time>2020-10-03T08:12:44.846Z</time>
      </trkpt>
      <trkpt lat="49.38707" lon="2.18015">
        <ele>120.279602</ele>
        <time>2020-10-03T08:12:53.927Z</time>
      </trkpt>
      <trkpt lat="49.38701" lon="2.18005">
        <ele>125.807251</ele>
        <time>2020-10-03T08:12:59.852Z</time>
      </trkpt>
      <trkpt lat="49.38692" lon="2.17991">
        <ele>122.656128</ele>
        <time>2020-10-03T08:13:06.852Z</time>
      </trkpt>
      <trkpt lat="49.38681" lon="2.17974">
        <ele>130.154785</ele>
        <time>2020-10-03T08:13:12.843Z</time>
      </trkpt>
      <trkpt lat="49.38669" lon="2.17956">
        <ele>125.506958</ele>
        <time>2020-10-03T08:13:18.502Z</time>
      </trkpt>
      <trkpt lat="49.38656" lon="2.17947">
        <ele>125.463989</ele>
        <time>2020-10-03T08:13:23.586Z</time>
      </trkpt>
      <trkpt lat="49.38641" lon="2.17946">
        <ele>126.369324</ele>
        <time>2020-10-03T08:13:28.867Z</time>
      </trkpt>
      <trkpt lat="49.38627" lon="2.17948">
        <ele>127.254822</ele>
        <time>2020-10-03T08:13:34.613Z</time>
      </trkpt>
      <trkpt lat="49.38614" lon="2.17953">
        <ele>128.352966</ele>
        <time>2020-10-03T08:13:39.896Z</time>
      </trkpt>
      <trkpt lat="49.38605" lon="2.17962">
        <ele>129.798828</ele>
        <time>2020-10-03T08:13:45.211Z</time>
      </trkpt>
      <trkpt lat="49.38598" lon="2.17976">
        <ele>133.581177</ele>
        <time>2020-10-03T08:13:50.478Z</time>
      </trkpt>
      <trkpt lat="49.38589" lon="2.17985">
        <ele>134.654175</ele>
        <time>2020-10-03T08:13:55.814Z</time>
      </trkpt>
      <trkpt lat="49.3858" lon="2.17987">
        <ele>140.180359</ele>
        <time>2020-10-03T08:14:00.822Z</time>
      </trkpt>
      <trkpt lat="49.38571" lon="2.17985">
        <ele>141.477234</ele>
        <time>2020-10-03T08:14:05.848Z</time>
      </trkpt>
      <trkpt lat="49.38561" lon="2.1798">
        <ele>138.886292</ele>
        <time>2020-10-03T08:14:11.164Z</time>
      </trkpt>
      <trkpt lat="49.38551" lon="2.17978">
        <ele>143.52002</ele>
        <time>2020-10-03T08:14:16.267Z</time>
      </trkpt>
      <trkpt lat="49.38541" lon="2.17973">
        <ele>143.209656</ele>
        <time>2020-10-03T08:14:21.497Z</time>
      </trkpt>
      <trkpt lat="49.38528" lon="2.17967">
        <ele>143.83728</ele>
        <time>2020-10-03T08:14:26.872Z</time>
      </trkpt>
      <trkpt lat="49.38515" lon="2.17959">
        <ele>140.730835</ele>
        <time>2020-10-03T08:14:32.505Z</time>
      </trkpt>
      <trkpt lat="49.38504" lon="2.17959">
        <ele>141.916016</ele>
        <time>2020-10-03T08:14:37.573Z</time>
      </trkpt>
      <trkpt lat="49.38493" lon="2.17966">
        <ele>139.765625</ele>
        <time>2020-10-03T08:14:42.848Z</time>
      </trkpt>
      <trkpt lat="49.38478" lon="2.17967">
        <ele>149.584045</ele>
        <time>2020-10-03T08:14:48.270Z</time>
      </trkpt>
      <trkpt lat="49.38468" lon="2.17961">
        <ele>151.889709</ele>
        <time>2020-10-03T08:14:53.570Z</time>
      </trkpt>
      <trkpt lat="49.38458" lon="2.17951">
        <ele>151.23468</ele>
        <time>2020-10-03T08:14:58.866Z</time>
      </trkpt>
      <trkpt lat="49.38447" lon="2.17937">
        <ele>150.767944</ele>
        <time>2020-10-03T08:15:03.868Z</time>
      </trkpt>
      <trkpt lat="49.38438" lon="2.17924">
        <ele>150.217896</ele>
        <time>2020-10-03T08:15:08.905Z</time>
      </trkpt>
      <trkpt lat="49.38426" lon="2.17911">
        <ele>149.557129</ele>
        <time>2020-10-03T08:15:14.855Z</time>
      </trkpt>
      <trkpt lat="49.38415" lon="2.17899">
        <ele>147.056152</ele>
        <time>2020-10-03T08:15:20.075Z</time>
      </trkpt>
      <trkpt lat="49.38406" lon="2.17891">
        <ele>148.509033</ele>
        <time>2020-10-03T08:15:25.888Z</time>
      </trkpt>
      <trkpt lat="49.38394" lon="2.17889">
        <ele>150.726379</ele>
        <time>2020-10-03T08:15:36.440Z</time>
      </trkpt>
      <trkpt lat="49.38381" lon="2.17889">
        <ele>152.944824</ele>
        <time>2020-10-03T08:15:41.856Z</time>
      </trkpt>
      <trkpt lat="49.38367" lon="2.1789">
        <ele>153.719421</ele>
        <time>2020-10-03T08:15:46.877Z</time>
      </trkpt>
      <trkpt lat="49.38354" lon="2.17889">
        <ele>152.387146</ele>
        <time>2020-10-03T08:15:52.543Z</time>
      </trkpt>
      <trkpt lat="49.38343" lon="2.17887">
        <ele>149.861084</ele>
        <time>2020-10-03T08:15:57.878Z</time>
      </trkpt>
      <trkpt lat="49.38333" lon="2.17887">
        <ele>150.109924</ele>
        <time>2020-10-03T08:16:03.855Z</time>
      </trkpt>
      <trkpt lat="49.38323" lon="2.17887">
        <ele>153.310181</ele>
        <time>2020-10-03T08:16:08.908Z</time>
      </trkpt>
      <trkpt lat="49.38314" lon="2.17889">
        <ele>154.06073</ele>
        <time>2020-10-03T08:16:13.982Z</time>
      </trkpt>
      <trkpt lat="49.38305" lon="2.17892">
        <ele>155.335266</ele>
        <time>2020-10-03T08:16:19.243Z</time>
      </trkpt>
      <trkpt lat="49.38297" lon="2.17896">
        <ele>156.503174</ele>
        <time>2020-10-03T08:16:24.869Z</time>
      </trkpt>
      <trkpt lat="49.38289" lon="2.17898">
        <ele>156.043335</ele>
        <time>2020-10-03T08:16:30.273Z</time>
      </trkpt>
      <trkpt lat="49.38279" lon="2.17902">
        <ele>154.041992</ele>
        <time>2020-10-03T08:16:35.851Z</time>
      </trkpt>
      <trkpt lat="49.38271" lon="2.17911">
        <ele>153.191467</ele>
        <time>2020-10-03T08:16:41.857Z</time>
      </trkpt>
      <trkpt lat="49.38264" lon="2.17919">
        <ele>155.65979</ele>
        <time>2020-10-03T08:16:47.862Z</time>
      </trkpt>
      <trkpt lat="49.38255" lon="2.17926">
        <ele>159.724365</ele>
        <time>2020-10-03T08:16:57.856Z</time>
      </trkpt>
      <trkpt lat="49.38245" lon="2.17935">
        <ele>165.368652</ele>
        <time>2020-10-03T08:17:09.831Z</time>
      </trkpt>
      <trkpt lat="49.38233" lon="2.17934">
        <ele>152.837036</ele>
        <time>2020-10-03T07:04:34.121Z</time>
      </trkpt>
      <trkpt lat="49.38227" lon="2.17929">
        <ele>153.043701</ele>
        <time>2020-10-03T07:04:39.587Z</time>
      </trkpt>
      <trkpt lat="49.38215" lon="2.17927">
        <ele>154.45343</ele>
        <time>2020-10-03T07:04:44.607Z</time>
      </trkpt>
      <trkpt lat="49.38206" lon="2.17923">
        <ele>151.73584</ele>
        <time>2020-10-03T07:04:50.594Z</time>
      </trkpt>
      <trkpt lat="49.382" lon="2.17921">
        <ele>153.567749</ele>
        <time>2020-10-03T07:04:55.615Z</time>
      </trkpt>
      <trkpt lat="49.38195" lon="2.17915">
        <ele>154.768982</ele>
        <time>2020-10-03T07:05:00.624Z</time>
      </trkpt>
      <trkpt lat="49.38187" lon="2.17911">
        <ele>154.575928</ele>
        <time>2020-10-03T07:05:06.580Z</time>
      </trkpt>
      <trkpt lat="49.38176" lon="2.1791">
        <ele>157.083252</ele>
        <time>2020-10-03T07:05:12.574Z</time>
      </trkpt>
      <trkpt lat="49.38172" lon="2.17906">
        <ele>157.660217</ele>
        <time>2020-10-03T07:05:17.600Z</time>
      </trkpt>
      <trkpt lat="49.38155" lon="2.17902">
        <ele>159.433655</ele>
        <time>2020-10-03T07:05:28.593Z</time>
      </trkpt>
      <trkpt lat="49.38141" lon="2.17903">
        <ele>159.903137</ele>
        <time>2020-10-03T07:05:33.776Z</time>
      </trkpt>
      <trkpt lat="49.38115" lon="2.17904">
        <ele>161.947266</ele>
        <time>2020-10-03T07:05:39.601Z</time>
      </trkpt>
      <trkpt lat="49.38093" lon="2.17903">
        <ele>164.818481</ele>
        <time>2020-10-03T07:05:44.767Z</time>
      </trkpt>
      <trkpt lat="49.38081" lon="2.17904">
        <ele>163.69519</ele>
        <time>2020-10-03T07:05:50.370Z</time>
      </trkpt>
      <trkpt lat="49.38068" lon="2.17908">
        <ele>161.484009</ele>
        <time>2020-10-03T07:05:56.052Z</time>
      </trkpt>
      <trkpt lat="49.38053" lon="2.17915">
        <ele>162.253662</ele>
        <time>2020-10-03T07:06:01.609Z</time>
      </trkpt>
      <trkpt lat="49.38036" lon="2.17921">
        <ele>116.878418</ele>
        <time>2020-10-03T07:06:07.517Z</time>
      </trkpt>
      <trkpt lat="49.38019" lon="2.17926">
        <ele>146.849609</ele>
        <time>2020-10-03T07:06:13.009Z</time>
      </trkpt>
      <trkpt lat="49.38005" lon="2.1793">
        <ele>150.986267</ele>
        <time>2020-10-03T07:06:18.281Z</time>
      </trkpt>
      <trkpt lat="49.37991" lon="2.17939">
        <ele>150.702454</ele>
        <time>2020-10-03T07:06:23.527Z</time>
      </trkpt>
      <trkpt lat="49.37976" lon="2.17945">
        <ele>148.907837</ele>
        <time>2020-10-03T07:06:28.747Z</time>
      </trkpt>
      <trkpt lat="49.37963" lon="2.17952">
        <ele>147.285828</ele>
        <time>2020-10-03T07:06:34.603Z</time>
      </trkpt>
      <trkpt lat="49.37945" lon="2.17965">
        <ele>151.444702</ele>
        <time>2020-10-03T07:06:40.199Z</time>
      </trkpt>
      <trkpt lat="49.37931" lon="2.17972">
        <ele>155.173157</ele>
        <time>2020-10-03T07:06:45.623Z</time>
      </trkpt>
      <trkpt lat="49.37917" lon="2.1798">
        <ele>156.226501</ele>
        <time>2020-10-03T07:06:51.288Z</time>
      </trkpt>
      <trkpt lat="49.37904" lon="2.17982">
        <ele>158.760498</ele>
        <time>2020-10-03T07:06:56.621Z</time>
      </trkpt>
      <trkpt lat="49.37889" lon="2.17985">
        <ele>157.803711</ele>
        <time>2020-10-03T07:07:02.108Z</time>
      </trkpt>
      <trkpt lat="49.37874" lon="2.17987">
        <ele>122.408691</ele>
        <time>2020-10-03T07:07:07.583Z</time>
      </trkpt>
      <trkpt lat="49.3786" lon="2.17987">
        <ele>143.39801</ele>
        <time>2020-10-03T07:07:13.052Z</time>
      </trkpt>
      <trkpt lat="49.37846" lon="2.17991">
        <ele>149.604065</ele>
        <time>2020-10-03T07:07:18.300Z</time>
      </trkpt>
      <trkpt lat="49.37839" lon="2.17993">
        <ele>154.192505</ele>
        <time>2020-10-03T07:07:23.887Z</time>
      </trkpt>
      <trkpt lat="49.37834" lon="2.17996">
        <ele>159.71814</ele>
        <time>2020-10-03T07:07:29.568Z</time>
      </trkpt>
      <trkpt lat="49.3783" lon="2.17997">
        <ele>157.723938</ele>
        <time>2020-10-03T07:07:35.215Z</time>
      </trkpt>
      <trkpt lat="49.37824" lon="2.17999">
        <ele>159.691406</ele>
        <time>2020-10-03T07:07:40.470Z</time>
      </trkpt>
      <trkpt lat="49.37816" lon="2.18006">
        <ele>166.500305</ele>
        <time>2020-10-03T07:07:49.596Z</time>
      </trkpt>
      <trkpt lat="49.37809" lon="2.18009">
        <ele>171.934875</ele>
        <time>2020-10-03T07:07:57.594Z</time>
      </trkpt>
      <trkpt lat="49.37794" lon="2.18019">
        <ele>180.661194</ele>
        <time>2020-10-03T07:09:42.612Z</time>
      </trkpt>
      <trkpt lat="49.37785" lon="2.18035">
        <ele>179.278748</ele>
        <time>2020-10-03T07:09:48.019Z</time>
      </trkpt>
      <trkpt lat="49.37772" lon="2.1805">
        <ele>179.520264</ele>
        <time>2020-10-03T07:09:53.505Z</time>
      </trkpt>
      <trkpt lat="49.3776" lon="2.18058">
        <ele>177.03009</ele>
        <time>2020-10-03T07:09:58.583Z</time>
      </trkpt>
      <trkpt lat="49.37745" lon="2.18064">
        <ele>170.27594</ele>
        <time>2020-10-03T07:10:04.585Z</time>
      </trkpt>
      <trkpt lat="49.37732" lon="2.18072">
        <ele>174.619751</ele>
        <time>2020-10-03T07:10:10.057Z</time>
      </trkpt>
      <trkpt lat="49.37719" lon="2.1808">
        <ele>176.408264</ele>
        <time>2020-10-03T07:10:15.143Z</time>
      </trkpt>
      <trkpt lat="49.37703" lon="2.18086">
        <ele>141.956787</ele>
        <time>2020-10-03T07:10:20.180Z</time>
      </trkpt>
      <trkpt lat="49.37687" lon="2.18092">
        <ele>169.858582</ele>
        <time>2020-10-03T07:10:25.369Z</time>
      </trkpt>
      <trkpt lat="49.37667" lon="2.18096">
        <ele>181.110168</ele>
        <time>2020-10-03T07:10:30.598Z</time>
      </trkpt>
      <trkpt lat="49.3765" lon="2.18099">
        <ele>183.377991</ele>
        <time>2020-10-03T07:10:35.600Z</time>
      </trkpt>
      <trkpt lat="49.37632" lon="2.18101">
        <ele>184.914185</ele>
        <time>2020-10-03T07:10:40.900Z</time>
      </trkpt>
      <trkpt lat="49.37614" lon="2.18102">
        <ele>176.090271</ele>
        <time>2020-10-03T07:10:46.596Z</time>
      </trkpt>
      <trkpt lat="49.37597" lon="2.18105">
        <ele>182.178101</ele>
        <time>2020-10-03T07:10:52.035Z</time>
      </trkpt>
      <trkpt lat="49.37579" lon="2.18111">
        <ele>187.506836</ele>
        <time>2020-10-03T07:10:57.371Z</time>
      </trkpt>
      <trkpt lat="49.37559" lon="2.18115">
        <ele>188.19397</ele>
        <time>2020-10-03T07:11:03.542Z</time>
      </trkpt>
      <trkpt lat="49.37542" lon="2.18118">
        <ele>182.583435</ele>
        <time>2020-10-03T07:11:08.607Z</time>
      </trkpt>
      <trkpt lat="49.37526" lon="2.1812">
        <ele>188.445862</ele>
        <time>2020-10-03T07:11:13.620Z</time>
      </trkpt>
      <trkpt lat="49.37508" lon="2.18124">
        <ele>188.886475</ele>
        <time>2020-10-03T07:11:18.888Z</time>
      </trkpt>
      <trkpt lat="49.37491" lon="2.18127">
        <ele>190.444214</ele>
        <time>2020-10-03T07:11:24.534Z</time>
      </trkpt>
      <trkpt lat="49.37458" lon="2.18133">
        <ele>193.341125</ele>
        <time>2020-10-03T07:11:34.121Z</time>
      </trkpt>
      <trkpt lat="49.37441" lon="2.18135">
        <ele>193.086792</ele>
        <time>2020-10-03T07:11:39.533Z</time>
      </trkpt>
      <trkpt lat="49.37422" lon="2.18137">
        <ele>192.277771</ele>
        <time>2020-10-03T07:11:45.235Z</time>
      </trkpt>
      <trkpt lat="49.37406" lon="2.18138">
        <ele>192.466064</ele>
        <time>2020-10-03T07:11:50.320Z</time>
      </trkpt>
      <trkpt lat="49.37389" lon="2.18141">
        <ele>191.525513</ele>
        <time>2020-10-03T07:11:55.408Z</time>
      </trkpt>
      <trkpt lat="49.37372" lon="2.18144">
        <ele>190.846924</ele>
        <time>2020-10-03T07:12:00.413Z</time>
      </trkpt>
      <trkpt lat="49.37357" lon="2.18148">
        <ele>189.432739</ele>
        <time>2020-10-03T07:12:05.579Z</time>
      </trkpt>
      <trkpt lat="49.37337" lon="2.18153">
        <ele>189.874023</ele>
        <time>2020-10-03T07:12:11.290Z</time>
      </trkpt>
      <trkpt lat="49.37321" lon="2.18158">
        <ele>189.588257</ele>
        <time>2020-10-03T07:12:16.594Z</time>
      </trkpt>
      <trkpt lat="49.37303" lon="2.18163">
        <ele>190.396484</ele>
        <time>2020-10-03T07:12:22.249Z</time>
      </trkpt>
      <trkpt lat="49.37286" lon="2.18166">
        <ele>190.942261</ele>
        <time>2020-10-03T07:12:27.657Z</time>
      </trkpt>
      <trkpt lat="49.3727" lon="2.18169">
        <ele>189.844849</ele>
        <time>2020-10-03T07:12:32.726Z</time>
      </trkpt>
      <trkpt lat="49.37254" lon="2.18171">
        <ele>189.18219</ele>
        <time>2020-10-03T07:12:38.310Z</time>
      </trkpt>
      <trkpt lat="49.37238" lon="2.18175">
        <ele>190.10907</ele>
        <time>2020-10-03T07:12:44.005Z</time>
      </trkpt>
      <trkpt lat="49.37219" lon="2.18175">
        <ele>189.881287</ele>
        <time>2020-10-03T07:12:49.570Z</time>
      </trkpt>
      <trkpt lat="49.37201" lon="2.18174">
        <ele>188.488708</ele>
        <time>2020-10-03T07:12:54.587Z</time>
      </trkpt>
      <trkpt lat="49.37181" lon="2.18176">
        <ele>187.844543</ele>
        <time>2020-10-03T07:12:59.816Z</time>
      </trkpt>
      <trkpt lat="49.3716" lon="2.18173">
        <ele>188.378418</ele>
        <time>2020-10-03T07:13:05.345Z</time>
      </trkpt>
      <trkpt lat="49.37142" lon="2.18166">
        <ele>190.50769</ele>
        <time>2020-10-03T07:13:10.463Z</time>
      </trkpt>
      <trkpt lat="49.37126" lon="2.18157">
        <ele>189.334778</ele>
        <time>2020-10-03T07:13:15.583Z</time>
      </trkpt>
      <trkpt lat="49.37107" lon="2.18144">
        <ele>189.455078</ele>
        <time>2020-10-03T07:13:20.949Z</time>
      </trkpt>
      <trkpt lat="49.37087" lon="2.1813">
        <ele>189.923706</ele>
        <time>2020-10-03T07:13:26.475Z</time>
      </trkpt>
      <trkpt lat="49.37065" lon="2.18115">
        <ele>188.53772</ele>
        <time>2020-10-03T07:13:32.487Z</time>
      </trkpt>
      <trkpt lat="49.37048" lon="2.18106">
        <ele>188.252136</ele>
        <time>2020-10-03T07:13:37.533Z</time>
      </trkpt>
      <trkpt lat="49.37027" lon="2.18093">
        <ele>189.198792</ele>
        <time>2020-10-03T07:13:43.021Z</time>
      </trkpt>
      <trkpt lat="49.37008" lon="2.18078">
        <ele>187.86792</ele>
        <time>2020-10-03T07:13:48.636Z</time>
      </trkpt>
      <trkpt lat="49.36986" lon="2.18061">
        <ele>188.075684</ele>
        <time>2020-10-03T07:13:54.298Z</time>
      </trkpt>
      <trkpt lat="49.36968" lon="2.18048">
        <ele>186.9245</ele>
        <time>2020-10-03T07:13:59.430Z</time>
      </trkpt>
      <trkpt lat="49.36948" lon="2.18035">
        <ele>187.117798</ele>
        <time>2020-10-03T07:14:04.580Z</time>
      </trkpt>
      <trkpt lat="49.36928" lon="2.18022">
        <ele>186.200012</ele>
        <time>2020-10-03T07:14:09.615Z</time>
      </trkpt>
      <trkpt lat="49.36907" lon="2.1801">
        <ele>184.631714</ele>
        <time>2020-10-03T07:14:15.080Z</time>
      </trkpt>
      <trkpt lat="49.36879" lon="2.17992">
        <ele>184.247375</ele>
        <time>2020-10-03T07:14:20.624Z</time>
      </trkpt>
      <trkpt lat="49.36853" lon="2.17977">
        <ele>182.870789</ele>
        <time>2020-10-03T07:14:26.647Z</time>
      </trkpt>
      <trkpt lat="49.36831" lon="2.17965">
        <ele>181.856628</ele>
        <time>2020-10-03T07:14:32.582Z</time>
      </trkpt>
      <trkpt lat="49.36804" lon="2.17951">
        <ele>180.309753</ele>
        <time>2020-10-03T07:14:40.052Z</time>
      </trkpt>
      <trkpt lat="49.36791" lon="2.17943">
        <ele>180.601257</ele>
        <time>2020-10-03T07:14:45.607Z</time>
      </trkpt>
      <trkpt lat="49.36767" lon="2.1793">
        <ele>179.295898</ele>
        <time>2020-10-03T07:14:54.251Z</time>
      </trkpt>
      <trkpt lat="49.36751" lon="2.1793">
        <ele>177.574097</ele>
        <time>2020-10-03T07:14:59.939Z</time>
      </trkpt>
      <trkpt lat="49.36738" lon="2.17942">
        <ele>175.862915</ele>
        <time>2020-10-03T07:15:05.306Z</time>
      </trkpt>
      <trkpt lat="49.3673" lon="2.17955">
        <ele>175.629089</ele>
        <time>2020-10-03T07:15:10.319Z</time>
      </trkpt>
      <trkpt lat="49.36717" lon="2.17965">
        <ele>177.149414</ele>
        <time>2020-10-03T07:15:15.539Z</time>
      </trkpt>
      <trkpt lat="49.36704" lon="2.17969">
        <ele>176.024658</ele>
        <time>2020-10-03T07:15:20.625Z</time>
      </trkpt>
      <trkpt lat="49.36692" lon="2.17978">
        <ele>181.965576</ele>
        <time>2020-10-03T07:15:26.279Z</time>
      </trkpt>
      <trkpt lat="49.36677" lon="2.17992">
        <ele>177.047241</ele>
        <time>2020-10-03T07:15:31.560Z</time>
      </trkpt>
      <trkpt lat="49.36658" lon="2.18">
        <ele>176.419006</ele>
        <time>2020-10-03T07:15:37.361Z</time>
      </trkpt>
      <trkpt lat="49.3664" lon="2.18009">
        <ele>175.06311</ele>
        <time>2020-10-03T07:15:42.600Z</time>
      </trkpt>
      <trkpt lat="49.36622" lon="2.18019">
        <ele>171.260681</ele>
        <time>2020-10-03T07:15:47.955Z</time>
      </trkpt>
      <trkpt lat="49.36605" lon="2.18034">
        <ele>168.720703</ele>
        <time>2020-10-03T07:15:53.406Z</time>
      </trkpt>
      <trkpt lat="49.36589" lon="2.18051">
        <ele>174.77179</ele>
        <time>2020-10-03T07:15:58.615Z</time>
      </trkpt>
      <trkpt lat="49.36569" lon="2.18072">
        <ele>172.062866</ele>
        <time>2020-10-03T07:16:04.209Z</time>
      </trkpt>
      <trkpt lat="49.36549" lon="2.18088">
        <ele>173.838989</ele>
        <time>2020-10-03T07:16:09.712Z</time>
      </trkpt>
      <trkpt lat="49.36523" lon="2.18105">
        <ele>166.761658</ele>
        <time>2020-10-03T07:16:15.593Z</time>
      </trkpt>
      <trkpt lat="49.36504" lon="2.18127">
        <ele>169.164063</ele>
        <time>2020-10-03T07:16:20.595Z</time>
      </trkpt>
      <trkpt lat="49.36491" lon="2.18141">
        <ele>169.827148</ele>
        <time>2020-10-03T07:16:26.123Z</time>
      </trkpt>
      <trkpt lat="49.36475" lon="2.18151">
        <ele>171.458008</ele>
        <time>2020-10-03T07:16:31.379Z</time>
      </trkpt>
      <trkpt lat="49.36458" lon="2.18168">
        <ele>171.947021</ele>
        <time>2020-10-03T07:16:36.614Z</time>
      </trkpt>
      <trkpt lat="49.36439" lon="2.18188">
        <ele>175.516968</ele>
        <time>2020-10-03T07:16:42.179Z</time>
      </trkpt>
      <trkpt lat="49.36421" lon="2.18206">
        <ele>172.280518</ele>
        <time>2020-10-03T07:16:47.573Z</time>
      </trkpt>
      <trkpt lat="49.36403" lon="2.18224">
        <ele>170.80426</ele>
        <time>2020-10-03T07:16:53.451Z</time>
      </trkpt>
      <trkpt lat="49.36386" lon="2.1824">
        <ele>171.516052</ele>
        <time>2020-10-03T07:16:59.580Z</time>
      </trkpt>
      <trkpt lat="49.36369" lon="2.18254">
        <ele>175.529541</ele>
        <time>2020-10-03T07:17:04.595Z</time>
      </trkpt>
      <trkpt lat="49.3635" lon="2.1827">
        <ele>175.96228</ele>
        <time>2020-10-03T07:17:09.866Z</time>
      </trkpt>
      <trkpt lat="49.36332" lon="2.18286">
        <ele>176.780151</ele>
        <time>2020-10-03T07:17:15.047Z</time>
      </trkpt>
      <trkpt lat="49.36315" lon="2.18297">
        <ele>176.752808</ele>
        <time>2020-10-03T07:17:20.328Z</time>
      </trkpt>
      <trkpt lat="49.36298" lon="2.18306">
        <ele>177.695862</ele>
        <time>2020-10-03T07:17:25.480Z</time>
      </trkpt>
      <trkpt lat="49.3628" lon="2.18316">
        <ele>175.729248</ele>
        <time>2020-10-03T07:17:31.133Z</time>
      </trkpt>
      <trkpt lat="49.36259" lon="2.18335">
        <ele>171.072266</ele>
        <time>2020-10-03T07:17:36.597Z</time>
      </trkpt>
      <trkpt lat="49.36239" lon="2.1834">
        <ele>171.274353</ele>
        <time>2020-10-03T07:17:42.028Z</time>
      </trkpt>
      <trkpt lat="49.36217" lon="2.18355">
        <ele>178.35907</ele>
        <time>2020-10-03T07:17:47.563Z</time>
      </trkpt>
      <trkpt lat="49.36189" lon="2.1837">
        <ele>182.885498</ele>
        <time>2020-10-03T07:17:52.585Z</time>
      </trkpt>
      <trkpt lat="49.36161" lon="2.1838">
        <ele>182.843506</ele>
        <time>2020-10-03T07:17:57.589Z</time>
      </trkpt>
      <trkpt lat="49.36121" lon="2.18392">
        <ele>181.448364</ele>
        <time>2020-10-03T07:18:03.582Z</time>
      </trkpt>
      <trkpt lat="49.36076" lon="2.18402">
        <ele>180.237854</ele>
        <time>2020-10-03T07:18:09.602Z</time>
      </trkpt>
      <trkpt lat="49.36039" lon="2.18418">
        <ele>179.970459</ele>
        <time>2020-10-03T07:18:14.622Z</time>
      </trkpt>
      <trkpt lat="49.36025" lon="2.18435">
        <ele>173.354736</ele>
        <time>2020-10-03T07:18:20.587Z</time>
      </trkpt>
      <trkpt lat="49.36022" lon="2.18437">
        <ele>172.742554</ele>
        <time>2020-10-03T07:18:25.604Z</time>
      </trkpt>
      <trkpt lat="49.36011" lon="2.18439">
        <ele>128.152771</ele>
        <time>2020-10-03T07:18:30.605Z</time>
      </trkpt>
      <trkpt lat="49.35992" lon="2.1844">
        <ele>182.396423</ele>
        <time>2020-10-03T07:18:36.215Z</time>
      </trkpt>
      <trkpt lat="49.35968" lon="2.18472">
        <ele>167.390503</ele>
        <time>2020-10-03T07:18:41.592Z</time>
      </trkpt>
      <trkpt lat="49.35937" lon="2.18499">
        <ele>161.437073</ele>
        <time>2020-10-03T07:18:46.696Z</time>
      </trkpt>
      <trkpt lat="49.35907" lon="2.18505">
        <ele>156.940369</ele>
        <time>2020-10-03T07:18:52.602Z</time>
      </trkpt>
      <trkpt lat="49.35873" lon="2.18517">
        <ele>170.672607</ele>
        <time>2020-10-03T07:18:58.596Z</time>
      </trkpt>
      <trkpt lat="49.35836" lon="2.18525">
        <ele>156.933533</ele>
        <time>2020-10-03T07:19:03.608Z</time>
      </trkpt>
      <trkpt lat="49.35794" lon="2.18537">
        <ele>149.695251</ele>
        <time>2020-10-03T07:19:08.634Z</time>
      </trkpt>
      <trkpt lat="49.35755" lon="2.18556">
        <ele>126.237366</ele>
        <time>2020-10-03T07:19:14.618Z</time>
      </trkpt>
      <trkpt lat="49.35726" lon="2.18596">
        <ele>133.410645</ele>
        <time>2020-10-03T07:19:20.684Z</time>
      </trkpt>
      <trkpt lat="49.35665" lon="2.18629">
        <ele>130.623413</ele>
        <time>2020-10-03T07:19:30.591Z</time>
      </trkpt>
      <trkpt lat="49.35637" lon="2.18644">
        <ele>130.020874</ele>
        <time>2020-10-03T07:19:35.627Z</time>
      </trkpt>
      <trkpt lat="49.35625" lon="2.18653">
        <ele>131.200012</ele>
        <time>2020-10-03T07:19:40.636Z</time>
      </trkpt>
      <trkpt lat="49.35617" lon="2.18627">
        <ele>131.200012</ele>
        <time>2020-10-03T07:19:45.639Z</time>
      </trkpt>
      <trkpt lat="49.35641" lon="2.18581">
        <ele>131.200012</ele>
        <time>2020-10-03T07:19:53.590Z</time>
      </trkpt>
      <trkpt lat="49.35655" lon="2.18544">
        <ele>131.200012</ele>
        <time>2020-10-03T07:19:59.610Z</time>
      </trkpt>
      <trkpt lat="49.3567" lon="2.18504">
        <ele>131.200012</ele>
        <time>2020-10-03T07:20:05.602Z</time>
      </trkpt>
      <trkpt lat="49.35681" lon="2.18466">
        <ele>131.200012</ele>
        <time>2020-10-03T07:20:10.610Z</time>
      </trkpt>
      <trkpt lat="49.35697" lon="2.18432">
        <ele>131.200012</ele>
        <time>2020-10-03T07:20:15.645Z</time>
      </trkpt>
      <trkpt lat="49.35711" lon="2.18395">
        <ele>131.200012</ele>
        <time>2020-10-03T07:20:21.560Z</time>
      </trkpt>
      <trkpt lat="49.35719" lon="2.18366">
        <ele>131.200012</ele>
        <time>2020-10-03T07:20:26.606Z</time>
      </trkpt>
      <trkpt lat="49.3573" lon="2.18314">
        <ele>131.200012</ele>
        <time>2020-10-03T07:20:33.592Z</time>
      </trkpt>
      <trkpt lat="49.35741" lon="2.18273">
        <ele>123.524414</ele>
        <time>2020-10-03T07:20:39.612Z</time>
      </trkpt>
      <trkpt lat="49.35766" lon="2.18201">
        <ele>126.368042</ele>
        <time>2020-10-03T07:20:50.561Z</time>
      </trkpt>
      <trkpt lat="49.3578" lon="2.18169">
        <ele>126.390198</ele>
        <time>2020-10-03T07:20:55.583Z</time>
      </trkpt>
      <trkpt lat="49.35793" lon="2.18131">
        <ele>129.996033</ele>
        <time>2020-10-03T07:21:01.594Z</time>
      </trkpt>
      <trkpt lat="49.35811" lon="2.18099">
        <ele>127.005554</ele>
        <time>2020-10-03T07:21:07.614Z</time>
      </trkpt>
      <trkpt lat="49.3583" lon="2.18066">
        <ele>127.653931</ele>
        <time>2020-10-03T07:21:13.567Z</time>
      </trkpt>
      <trkpt lat="49.35846" lon="2.18035">
        <ele>127.100647</ele>
        <time>2020-10-03T07:21:18.597Z</time>
      </trkpt>
      <trkpt lat="49.35869" lon="2.18016">
        <ele>128.788879</ele>
        <time>2020-10-03T07:21:23.613Z</time>
      </trkpt>
      <trkpt lat="49.35924" lon="2.17986">
        <ele>129.783264</ele>
        <time>2020-10-03T07:21:34.603Z</time>
      </trkpt>
      <trkpt lat="49.35951" lon="2.17965">
        <ele>130.175964</ele>
        <time>2020-10-03T07:21:40.591Z</time>
      </trkpt>
      <trkpt lat="49.35977" lon="2.17945">
        <ele>129.772034</ele>
        <time>2020-10-03T07:21:46.627Z</time>
      </trkpt>
      <trkpt lat="49.36023" lon="2.17917">
        <ele>128.237061</ele>
        <time>2020-10-03T07:21:56.614Z</time>
      </trkpt>
      <trkpt lat="49.3605" lon="2.17901">
        <ele>129.870789</ele>
        <time>2020-10-03T07:22:02.621Z</time>
      </trkpt>
      <trkpt lat="49.36078" lon="2.17886">
        <ele>127.666321</ele>
        <time>2020-10-03T07:22:08.597Z</time>
      </trkpt>
      <trkpt lat="49.36101" lon="2.1786">
        <ele>127.223816</ele>
        <time>2020-10-03T07:22:14.589Z</time>
      </trkpt>
      <trkpt lat="49.36126" lon="2.17835">
        <ele>145.665344</ele>
        <time>2020-10-03T07:22:20.595Z</time>
      </trkpt>
      <trkpt lat="49.3614" lon="2.17802">
        <ele>138.5</ele>
        <time>2020-10-03T07:22:26.619Z</time>
      </trkpt>
      <trkpt lat="49.36151" lon="2.17769">
        <ele>138.5</ele>
        <time>2020-10-03T07:22:32.577Z</time>
      </trkpt>
      <trkpt lat="49.3616" lon="2.17735">
        <ele>138.900009</ele>
        <time>2020-10-03T07:22:37.595Z</time>
      </trkpt>
      <trkpt lat="49.36169" lon="2.17702">
        <ele>138.900009</ele>
        <time>2020-10-03T07:22:43.584Z</time>
      </trkpt>
      <trkpt lat="49.36179" lon="2.17669">
        <ele>138.900009</ele>
        <time>2020-10-03T07:22:49.591Z</time>
      </trkpt>
      <trkpt lat="49.3619" lon="2.1764">
        <ele>138.900009</ele>
        <time>2020-10-03T07:22:55.615Z</time>
      </trkpt>
      <trkpt lat="49.362" lon="2.17608">
        <ele>138.900009</ele>
        <time>2020-10-03T07:23:01.608Z</time>
      </trkpt>
      <trkpt lat="49.36212" lon="2.17585">
        <ele>138.900009</ele>
        <time>2020-10-03T07:23:06.614Z</time>
      </trkpt>
      <trkpt lat="49.36231" lon="2.17554">
        <ele>138.900009</ele>
        <time>2020-10-03T07:23:13.604Z</time>
      </trkpt>
      <trkpt lat="49.36253" lon="2.17521">
        <ele>138.900009</ele>
        <time>2020-10-03T07:23:21.597Z</time>
      </trkpt>
      <trkpt lat="49.3627" lon="2.17497">
        <ele>138.900009</ele>
        <time>2020-10-03T07:23:29.330Z</time>
      </trkpt>
      <trkpt lat="49.36268" lon="2.17497">
        <ele>140.553955</ele>
        <time>2020-10-03T07:23:35.300Z</time>
      </trkpt>
      <trkpt lat="49.36269" lon="2.17486">
        <ele>139.405151</ele>
        <time>2020-10-03T07:23:40.377Z</time>
      </trkpt>
      <trkpt lat="49.36283" lon="2.17465">
        <ele>140.436035</ele>
        <time>2020-10-03T07:23:45.572Z</time>
      </trkpt>
      <trkpt lat="49.36303" lon="2.17412">
        <ele>137.906067</ele>
        <time>2020-10-03T07:23:51.575Z</time>
      </trkpt>
      <trkpt lat="49.36318" lon="2.17382">
        <ele>139.497498</ele>
        <time>2020-10-03T07:23:56.580Z</time>
      </trkpt>
      <trkpt lat="49.36333" lon="2.17351">
        <ele>139.321777</ele>
        <time>2020-10-03T07:24:01.617Z</time>
      </trkpt>
      <trkpt lat="49.3635" lon="2.17323">
        <ele>140.237732</ele>
        <time>2020-10-03T07:24:07.596Z</time>
      </trkpt>
      <trkpt lat="49.36364" lon="2.173">
        <ele>140.44043</ele>
        <time>2020-10-03T07:24:12.963Z</time>
      </trkpt>
      <trkpt lat="49.36378" lon="2.17287">
        <ele>138.063354</ele>
        <time>2020-10-03T07:24:18.262Z</time>
      </trkpt>
      <trkpt lat="49.36386" lon="2.17272">
        <ele>133.230591</ele>
        <time>2020-10-03T07:24:24.462Z</time>
      </trkpt>
      <trkpt lat="49.36397" lon="2.17258">
        <ele>121.064209</ele>
        <time>2020-10-03T07:24:29.589Z</time>
      </trkpt>
      <trkpt lat="49.36413" lon="2.17242">
        <ele>127.241577</ele>
        <time>2020-10-03T07:24:34.761Z</time>
      </trkpt>
      <trkpt lat="49.36427" lon="2.17224">
        <ele>130.648071</ele>
        <time>2020-10-03T07:24:40.222Z</time>
      </trkpt>
      <trkpt lat="49.36437" lon="2.17202">
        <ele>135.02417</ele>
        <time>2020-10-03T07:24:45.568Z</time>
      </trkpt>
      <trkpt lat="49.36452" lon="2.17181">
        <ele>134.006104</ele>
        <time>2020-10-03T07:24:50.667Z</time>
      </trkpt>
      <trkpt lat="49.3647" lon="2.17149">
        <ele>139.206604</ele>
        <time>2020-10-03T07:24:56.580Z</time>
      </trkpt>
      <trkpt lat="49.36482" lon="2.17121">
        <ele>138.653625</ele>
        <time>2020-10-03T07:25:01.880Z</time>
      </trkpt>
      <trkpt lat="49.36492" lon="2.17096">
        <ele>136.584595</ele>
        <time>2020-10-03T07:25:06.981Z</time>
      </trkpt>
      <trkpt lat="49.36501" lon="2.17077">
        <ele>134.826294</ele>
        <time>2020-10-03T07:25:12.218Z</time>
      </trkpt>
      <trkpt lat="49.36513" lon="2.17058">
        <ele>136.182251</ele>
        <time>2020-10-03T07:25:17.524Z</time>
      </trkpt>
      <trkpt lat="49.36519" lon="2.17044">
        <ele>136.719238</ele>
        <time>2020-10-03T07:25:22.536Z</time>
      </trkpt>
      <trkpt lat="49.36525" lon="2.17032">
        <ele>136.966309</ele>
        <time>2020-10-03T07:25:27.587Z</time>
      </trkpt>
      <trkpt lat="49.36535" lon="2.17016">
        <ele>137.531006</ele>
        <time>2020-10-03T07:25:33.350Z</time>
      </trkpt>
      <trkpt lat="49.36544" lon="2.17003">
        <ele>141.779663</ele>
        <time>2020-10-03T07:25:38.599Z</time>
      </trkpt>
      <trkpt lat="49.36553" lon="2.16992">
        <ele>145.049683</ele>
        <time>2020-10-03T07:25:43.818Z</time>
      </trkpt>
      <trkpt lat="49.36565" lon="2.16979">
        <ele>142.652771</ele>
        <time>2020-10-03T07:25:49.548Z</time>
      </trkpt>
      <trkpt lat="49.36575" lon="2.16965">
        <ele>140.301453</ele>
        <time>2020-10-03T07:25:55.512Z</time>
      </trkpt>
      <trkpt lat="49.36581" lon="2.16956">
        <ele>137.124756</ele>
        <time>2020-10-03T07:26:00.583Z</time>
      </trkpt>
      <trkpt lat="49.36587" lon="2.16941">
        <ele>134.463379</ele>
        <time>2020-10-03T07:26:06.102Z</time>
      </trkpt>
      <trkpt lat="49.36588" lon="2.16926">
        <ele>132.963074</ele>
        <time>2020-10-03T07:26:11.151Z</time>
      </trkpt>
      <trkpt lat="49.36592" lon="2.16908">
        <ele>127.381348</ele>
        <time>2020-10-03T07:26:16.613Z</time>
      </trkpt>
      <trkpt lat="49.36595" lon="2.16883">
        <ele>127.844788</ele>
        <time>2020-10-03T07:26:22.351Z</time>
      </trkpt>
      <trkpt lat="49.36596" lon="2.1686">
        <ele>132.987427</ele>
        <time>2020-10-03T07:26:27.526Z</time>
      </trkpt>
      <trkpt lat="49.36596" lon="2.16839">
        <ele>137.952026</ele>
        <time>2020-10-03T07:26:32.581Z</time>
      </trkpt>
      <trkpt lat="49.36597" lon="2.16822">
        <ele>138.723083</ele>
        <time>2020-10-03T07:26:37.605Z</time>
      </trkpt>
      <trkpt lat="49.36598" lon="2.16791">
        <ele>142.288574</ele>
        <time>2020-10-03T07:26:47.609Z</time>
      </trkpt>
      <trkpt lat="49.36597" lon="2.16773">
        <ele>143.129578</ele>
        <time>2020-10-03T07:26:52.904Z</time>
      </trkpt>
      <trkpt lat="49.36596" lon="2.16757">
        <ele>141.879639</ele>
        <time>2020-10-03T07:26:58.590Z</time>
      </trkpt>
      <trkpt lat="49.36595" lon="2.16741">
        <ele>142.680237</ele>
        <time>2020-10-03T07:27:04.096Z</time>
      </trkpt>
      <trkpt lat="49.36594" lon="2.16724">
        <ele>144.497864</ele>
        <time>2020-10-03T07:27:09.626Z</time>
      </trkpt>
      <trkpt lat="49.36596" lon="2.1669">
        <ele>158.839294</ele>
        <time>2020-10-03T07:27:20.586Z</time>
      </trkpt>
      <trkpt lat="49.36598" lon="2.16674">
        <ele>141.822876</ele>
        <time>2020-10-03T07:27:26.566Z</time>
      </trkpt>
      <trkpt lat="49.366" lon="2.16658">
        <ele>144.105225</ele>
        <time>2020-10-03T07:27:31.575Z</time>
      </trkpt>
      <trkpt lat="49.36602" lon="2.16644">
        <ele>145.782104</ele>
        <time>2020-10-03T07:27:36.632Z</time>
      </trkpt>
      <trkpt lat="49.36606" lon="2.16624">
        <ele>148.718262</ele>
        <time>2020-10-03T07:27:42.600Z</time>
      </trkpt>
      <trkpt lat="49.3661" lon="2.16604">
        <ele>147.843689</ele>
        <time>2020-10-03T07:27:48.078Z</time>
      </trkpt>
      <trkpt lat="49.36616" lon="2.16574">
        <ele>146.630127</ele>
        <time>2020-10-03T07:27:53.594Z</time>
      </trkpt>
      <trkpt lat="49.36624" lon="2.16539">
        <ele>134.436279</ele>
        <time>2020-10-03T07:27:58.646Z</time>
      </trkpt>
      <trkpt lat="49.36632" lon="2.16499">
        <ele>143.288086</ele>
        <time>2020-10-03T07:28:04.592Z</time>
      </trkpt>
      <trkpt lat="49.36639" lon="2.16474">
        <ele>152.455566</ele>
        <time>2020-10-03T07:28:09.609Z</time>
      </trkpt>
      <trkpt lat="49.36651" lon="2.16426">
        <ele>156.22998</ele>
        <time>2020-10-03T07:28:17.556Z</time>
      </trkpt>
      <trkpt lat="49.36663" lon="2.16363">
        <ele>148.079956</ele>
        <time>2020-10-03T07:28:25.568Z</time>
      </trkpt>
      <trkpt lat="49.36675" lon="2.16318">
        <ele>143.701294</ele>
        <time>2020-10-03T07:28:30.633Z</time>
      </trkpt>
      <trkpt lat="49.36701" lon="2.16241">
        <ele>137.093567</ele>
        <time>2020-10-03T07:28:41.586Z</time>
      </trkpt>
      <trkpt lat="49.36713" lon="2.1622">
        <ele>145.100006</ele>
        <time>2020-10-03T07:28:47.397Z</time>
      </trkpt>
      <trkpt lat="49.36729" lon="2.162">
        <ele>145.100006</ele>
        <time>2020-10-03T07:28:52.513Z</time>
      </trkpt>
      <trkpt lat="49.36749" lon="2.16174">
        <ele>145.100006</ele>
        <time>2020-10-03T07:28:57.620Z</time>
      </trkpt>
      <trkpt lat="49.36771" lon="2.16151">
        <ele>145.100006</ele>
        <time>2020-10-03T07:29:03.599Z</time>
      </trkpt>
      <trkpt lat="49.36809" lon="2.16124">
        <ele>145.100006</ele>
        <time>2020-10-03T07:29:12.598Z</time>
      </trkpt>
      <trkpt lat="49.36843" lon="2.161">
        <ele>145.100006</ele>
        <time>2020-10-03T07:29:19.598Z</time>
      </trkpt>
      <trkpt lat="49.3687" lon="2.16078">
        <ele>145.100006</ele>
        <time>2020-10-03T07:29:25.566Z</time>
      </trkpt>
      <trkpt lat="49.36892" lon="2.16061">
        <ele>145.100006</ele>
        <time>2020-10-03T07:29:30.599Z</time>
      </trkpt>
      <trkpt lat="49.36917" lon="2.16041">
        <ele>145.100006</ele>
        <time>2020-10-03T07:29:36.601Z</time>
      </trkpt>
      <trkpt lat="49.36943" lon="2.1602">
        <ele>144.262695</ele>
        <time>2020-10-03T07:29:42.601Z</time>
      </trkpt>
      <trkpt lat="49.36965" lon="2.16006">
        <ele>142.597839</ele>
        <time>2020-10-03T07:29:48.570Z</time>
      </trkpt>
      <trkpt lat="49.36981" lon="2.15995">
        <ele>141.696655</ele>
        <time>2020-10-03T07:29:54.677Z</time>
      </trkpt>
      <trkpt lat="49.37012" lon="2.15983">
        <ele>138.465393</ele>
        <time>2020-10-03T07:30:00.382Z</time>
      </trkpt>
      <trkpt lat="49.37039" lon="2.15964">
        <ele>145.344727</ele>
        <time>2020-10-03T07:30:05.612Z</time>
      </trkpt>
      <trkpt lat="49.3707" lon="2.15943">
        <ele>142.614929</ele>
        <time>2020-10-03T07:30:12.571Z</time>
      </trkpt>
      <trkpt lat="49.37112" lon="2.15919">
        <ele>144.003357</ele>
        <time>2020-10-03T07:30:21.615Z</time>
      </trkpt>
      <trkpt lat="49.37135" lon="2.15908">
        <ele>136.379028</ele>
        <time>2020-10-03T07:30:27.605Z</time>
      </trkpt>
      <trkpt lat="49.37153" lon="2.15921">
        <ele>130.771729</ele>
        <time>2020-10-03T07:30:32.607Z</time>
      </trkpt>
      <trkpt lat="49.37173" lon="2.15948">
        <ele>130.857666</ele>
        <time>2020-10-03T07:30:37.637Z</time>
      </trkpt>
      <trkpt lat="49.37194" lon="2.15977">
        <ele>131.851318</ele>
        <time>2020-10-03T07:30:44.072Z</time>
      </trkpt>
      <trkpt lat="49.3721" lon="2.15996">
        <ele>134.592651</ele>
        <time>2020-10-03T07:30:49.294Z</time>
      </trkpt>
      <trkpt lat="49.37235" lon="2.16013">
        <ele>136.598267</ele>
        <time>2020-10-03T07:30:54.591Z</time>
      </trkpt>
      <trkpt lat="49.37257" lon="2.16031">
        <ele>133.575806</ele>
        <time>2020-10-03T07:30:59.597Z</time>
      </trkpt>
      <trkpt lat="49.37278" lon="2.16052">
        <ele>135.48999</ele>
        <time>2020-10-03T07:31:04.639Z</time>
      </trkpt>
      <trkpt lat="49.3731" lon="2.16084">
        <ele>134.621521</ele>
        <time>2020-10-03T07:31:12.592Z</time>
      </trkpt>
      <trkpt lat="49.37349" lon="2.16127">
        <ele>135.04834</ele>
        <time>2020-10-03T07:31:21.598Z</time>
      </trkpt>
      <trkpt lat="49.37377" lon="2.16161">
        <ele>135.537354</ele>
        <time>2020-10-03T07:31:27.606Z</time>
      </trkpt>
      <trkpt lat="49.37425" lon="2.16208">
        <ele>132.221558</ele>
        <time>2020-10-03T07:31:37.609Z</time>
      </trkpt>
      <trkpt lat="49.37456" lon="2.16231">
        <ele>130.920898</ele>
        <time>2020-10-03T07:31:43.610Z</time>
      </trkpt>
      <trkpt lat="49.37484" lon="2.1625">
        <ele>133.401184</ele>
        <time>2020-10-03T07:31:49.599Z</time>
      </trkpt>
      <trkpt lat="49.37508" lon="2.16259">
        <ele>133.37677</ele>
        <time>2020-10-03T07:31:55.578Z</time>
      </trkpt>
      <trkpt lat="49.37523" lon="2.16243">
        <ele>132.661682</ele>
        <time>2020-10-03T07:32:00.597Z</time>
      </trkpt>
      <trkpt lat="49.37568" lon="2.16192">
        <ele>132.876587</ele>
        <time>2020-10-03T07:32:11.599Z</time>
      </trkpt>
      <trkpt lat="49.37619" lon="2.16141">
        <ele>138.058044</ele>
        <time>2020-10-03T07:32:21.607Z</time>
      </trkpt>
      <trkpt lat="49.37639" lon="2.16104">
        <ele>139.003174</ele>
        <time>2020-10-03T07:32:27.567Z</time>
      </trkpt>
      <trkpt lat="49.37663" lon="2.1603">
        <ele>136.293518</ele>
        <time>2020-10-03T07:32:37.597Z</time>
      </trkpt>
      <trkpt lat="49.37683" lon="2.16">
        <ele>135.505249</ele>
        <time>2020-10-03T07:32:42.622Z</time>
      </trkpt>
      <trkpt lat="49.37719" lon="2.15979">
        <ele>134.873535</ele>
        <time>2020-10-03T07:32:49.599Z</time>
      </trkpt>
      <trkpt lat="49.37753" lon="2.15979">
        <ele>128.86499</ele>
        <time>2020-10-03T07:32:55.582Z</time>
      </trkpt>
      <trkpt lat="49.37767" lon="2.15984">
        <ele>128.605225</ele>
        <time>2020-10-03T07:33:00.588Z</time>
      </trkpt>
      <trkpt lat="49.37768" lon="2.15986">
        <ele>128.114563</ele>
        <time>2020-10-03T07:33:05.605Z</time>
      </trkpt>
      <trkpt lat="49.37775" lon="2.16015">
        <ele>127.56781</ele>
        <time>2020-10-03T07:33:13.194Z</time>
      </trkpt>
      <trkpt lat="49.37799" lon="2.16072">
        <ele>127.222229</ele>
        <time>2020-10-03T07:33:21.587Z</time>
      </trkpt>
      <trkpt lat="49.37819" lon="2.16096">
        <ele>127.974121</ele>
        <time>2020-10-03T07:33:26.598Z</time>
      </trkpt>
      <trkpt lat="49.3783" lon="2.16105">
        <ele>127.634338</ele>
        <time>2020-10-03T07:33:31.904Z</time>
      </trkpt>
      <trkpt lat="49.37841" lon="2.16113">
        <ele>124.513306</ele>
        <time>2020-10-03T07:33:37.588Z</time>
      </trkpt>
      <trkpt lat="49.3785" lon="2.16124">
        <ele>123.701111</ele>
        <time>2020-10-03T07:33:43.516Z</time>
      </trkpt>
      <trkpt lat="49.37858" lon="2.16135">
        <ele>125.137634</ele>
        <time>2020-10-03T07:33:48.609Z</time>
      </trkpt>
      <trkpt lat="49.37867" lon="2.16146">
        <ele>123.970032</ele>
        <time>2020-10-03T07:33:54.587Z</time>
      </trkpt>
      <trkpt lat="49.37881" lon="2.16179">
        <ele>86.6</ele>
      </trkpt>
      <trkpt lat="49.37909" lon="2.16208">
        <ele>87</ele>
      </trkpt>
      <trkpt lat="49.37936" lon="2.1622">
        <ele>131.242615</ele>
        <time>2020-10-03T07:34:58.143Z</time>
      </trkpt>
      <trkpt lat="49.37945" lon="2.16226">
        <ele>132.385986</ele>
        <time>2020-10-03T07:35:03.514Z</time>
      </trkpt>
      <trkpt lat="49.37955" lon="2.16233">
        <ele>133.891541</ele>
        <time>2020-10-03T07:35:08.623Z</time>
      </trkpt>
      <trkpt lat="49.37964" lon="2.16244">
        <ele>134.328003</ele>
        <time>2020-10-03T07:35:14.108Z</time>
      </trkpt>
      <trkpt lat="49.3797" lon="2.16253">
        <ele>134.53241</ele>
        <time>2020-10-03T07:35:19.629Z</time>
      </trkpt>
      <trkpt lat="49.3798" lon="2.16254">
        <ele>138.91925</ele>
        <time>2020-10-03T07:35:25.212Z</time>
      </trkpt>
      <trkpt lat="49.37987" lon="2.16242">
        <ele>137.383606</ele>
        <time>2020-10-03T07:35:30.609Z</time>
      </trkpt>
      <trkpt lat="49.37991" lon="2.16228">
        <ele>132.72699</ele>
        <time>2020-10-03T07:35:36.599Z</time>
      </trkpt>
      <trkpt lat="49.37996" lon="2.1622">
        <ele>136.626099</ele>
        <time>2020-10-03T07:35:42.596Z</time>
      </trkpt>
      <trkpt lat="49.38004" lon="2.16222">
        <ele>136.390808</ele>
        <time>2020-10-03T07:35:48.045Z</time>
      </trkpt>
      <trkpt lat="49.38014" lon="2.16224">
        <ele>138.770691</ele>
        <time>2020-10-03T07:35:53.598Z</time>
      </trkpt>
      <trkpt lat="49.38019" lon="2.16227">
        <ele>137.436279</ele>
        <time>2020-10-03T07:35:58.601Z</time>
      </trkpt>
      <trkpt lat="49.3802" lon="2.1623">
        <ele>139.340271</ele>
        <time>2020-10-03T07:36:04.049Z</time>
      </trkpt>
      <trkpt lat="49.38023" lon="2.16239">
        <ele>141.898682</ele>
        <time>2020-10-03T07:36:09.347Z</time>
      </trkpt>
      <trkpt lat="49.38028" lon="2.16247">
        <ele>143.094238</ele>
        <time>2020-10-03T07:36:14.562Z</time>
      </trkpt>
      <trkpt lat="49.38033" lon="2.16253">
        <ele>145.577942</ele>
        <time>2020-10-03T07:36:19.599Z</time>
      </trkpt>
      <trkpt lat="49.38043" lon="2.16269">
        <ele>147.203186</ele>
        <time>2020-10-03T07:36:29.588Z</time>
      </trkpt>
      <trkpt lat="49.38052" lon="2.16281">
        <ele>147.654968</ele>
        <time>2020-10-03T07:36:36.144Z</time>
      </trkpt>
      <trkpt lat="49.38056" lon="2.16291">
        <ele>149.530334</ele>
        <time>2020-10-03T07:36:41.615Z</time>
      </trkpt>
      <trkpt lat="49.38058" lon="2.16297">
        <ele>149.870056</ele>
        <time>2020-10-03T07:36:46.616Z</time>
      </trkpt>
      <trkpt lat="49.38061" lon="2.16307">
        <ele>151.044922</ele>
        <time>2020-10-03T07:36:52.635Z</time>
      </trkpt>
      <trkpt lat="49.38063" lon="2.16316">
        <ele>150.231384</ele>
        <time>2020-10-03T07:36:58.094Z</time>
      </trkpt>
      <trkpt lat="49.38065" lon="2.16326">
        <ele>150.710693</ele>
        <time>2020-10-03T07:37:03.599Z</time>
      </trkpt>
      <trkpt lat="49.38067" lon="2.16339">
        <ele>152.907227</ele>
        <time>2020-10-03T07:37:09.571Z</time>
      </trkpt>
      <trkpt lat="49.38067" lon="2.16347">
        <ele>151.012024</ele>
        <time>2020-10-03T07:37:15.253Z</time>
      </trkpt>
      <trkpt lat="49.38071" lon="2.16361">
        <ele>155.13208</ele>
        <time>2020-10-03T07:37:31.393Z</time>
      </trkpt>
      <trkpt lat="49.38075" lon="2.16373">
        <ele>156.678345</ele>
        <time>2020-10-03T07:37:36.598Z</time>
      </trkpt>
      <trkpt lat="49.38075" lon="2.16379">
        <ele>157.075989</ele>
        <time>2020-10-03T07:37:41.789Z</time>
      </trkpt>
      <trkpt lat="49.38075" lon="2.16389">
        <ele>158.548645</ele>
        <time>2020-10-03T07:37:47.591Z</time>
      </trkpt>
      <trkpt lat="49.38076" lon="2.16398">
        <ele>159.669312</ele>
        <time>2020-10-03T07:37:53.578Z</time>
      </trkpt>
      <trkpt lat="49.38078" lon="2.16413">
        <ele>159.39447</ele>
        <time>2020-10-03T07:38:03.232Z</time>
      </trkpt>
      <trkpt lat="49.38081" lon="2.16423">
        <ele>163.480164</ele>
        <time>2020-10-03T07:38:08.621Z</time>
      </trkpt>
      <trkpt lat="49.38083" lon="2.16431">
        <ele>162.708496</ele>
        <time>2020-10-03T07:38:13.695Z</time>
      </trkpt>
      <trkpt lat="49.38087" lon="2.16441">
        <ele>164.645874</ele>
        <time>2020-10-03T07:38:19.579Z</time>
      </trkpt>
      <trkpt lat="49.3809" lon="2.16448">
        <ele>167.648193</ele>
        <time>2020-10-03T07:38:25.624Z</time>
      </trkpt>
      <trkpt lat="49.38094" lon="2.16455">
        <ele>167.020325</ele>
        <time>2020-10-03T07:38:31.626Z</time>
      </trkpt>
      <trkpt lat="49.38103" lon="2.16475">
        <ele>168.270325</ele>
        <time>2020-10-03T07:38:41.916Z</time>
      </trkpt>
      <trkpt lat="49.38107" lon="2.16482">
        <ele>171.354065</ele>
        <time>2020-10-03T07:38:47.609Z</time>
      </trkpt>
      <trkpt lat="49.38115" lon="2.16493">
        <ele>172.987976</ele>
        <time>2020-10-03T07:38:53.209Z</time>
      </trkpt>
      <trkpt lat="49.38124" lon="2.16504">
        <ele>174.103271</ele>
        <time>2020-10-03T07:38:58.678Z</time>
      </trkpt>
      <trkpt lat="49.38133" lon="2.16513">
        <ele>169.624146</ele>
        <time>2020-10-03T07:39:03.913Z</time>
      </trkpt>
      <trkpt lat="49.38141" lon="2.16524">
        <ele>169.37207</ele>
        <time>2020-10-03T07:39:09.430Z</time>
      </trkpt>
      <trkpt lat="49.38148" lon="2.16534">
        <ele>167.589233</ele>
        <time>2020-10-03T07:39:14.598Z</time>
      </trkpt>
      <trkpt lat="49.38157" lon="2.16549">
        <ele>168.771301</ele>
        <time>2020-10-03T07:39:20.260Z</time>
      </trkpt>
      <trkpt lat="49.38166" lon="2.16564">
        <ele>171.44928</ele>
        <time>2020-10-03T07:39:25.579Z</time>
      </trkpt>
      <trkpt lat="49.38182" lon="2.16587">
        <ele>172.885498</ele>
        <time>2020-10-03T07:39:31.000Z</time>
      </trkpt>
      <trkpt lat="49.38193" lon="2.16603">
        <ele>178.632141</ele>
        <time>2020-10-03T07:39:36.533Z</time>
      </trkpt>
      <trkpt lat="49.38209" lon="2.16614">
        <ele>180.359863</ele>
        <time>2020-10-03T07:39:41.813Z</time>
      </trkpt>
      <trkpt lat="49.38222" lon="2.1662">
        <ele>180.141846</ele>
        <time>2020-10-03T07:39:47.348Z</time>
      </trkpt>
      <trkpt lat="49.38235" lon="2.16626">
        <ele>178.555542</ele>
        <time>2020-10-03T07:39:52.437Z</time>
      </trkpt>
      <trkpt lat="49.38248" lon="2.16625">
        <ele>181.349304</ele>
        <time>2020-10-03T07:39:57.896Z</time>
      </trkpt>
      <trkpt lat="49.38264" lon="2.16622">
        <ele>180.355774</ele>
        <time>2020-10-03T07:40:03.454Z</time>
      </trkpt>
      <trkpt lat="49.38281" lon="2.16622">
        <ele>184.480225</ele>
        <time>2020-10-03T07:40:09.264Z</time>
      </trkpt>
      <trkpt lat="49.38289" lon="2.1662">
        <ele>191.213745</ele>
        <time>2020-10-03T07:40:14.588Z</time>
      </trkpt>
      <trkpt lat="49.38294" lon="2.16618">
        <ele>192.691345</ele>
        <time>2020-10-03T07:40:20.050Z</time>
      </trkpt>
      <trkpt lat="49.38299" lon="2.16614">
        <ele>189.87793</ele>
        <time>2020-10-03T07:40:25.372Z</time>
      </trkpt>
      <trkpt lat="49.38305" lon="2.16611">
        <ele>186.692749</ele>
        <time>2020-10-03T07:40:30.605Z</time>
      </trkpt>
      <trkpt lat="49.38311" lon="2.16609">
        <ele>185.691345</ele>
        <time>2020-10-03T07:40:36.600Z</time>
      </trkpt>
      <trkpt lat="49.38318" lon="2.16605">
        <ele>181.672119</ele>
        <time>2020-10-03T07:40:41.613Z</time>
      </trkpt>
      <trkpt lat="49.38327" lon="2.16606">
        <ele>183.21698</ele>
        <time>2020-10-03T07:40:48.586Z</time>
      </trkpt>
      <trkpt lat="49.38344" lon="2.16609">
        <ele>188.115784</ele>
        <time>2020-10-03T07:40:57.539Z</time>
      </trkpt>
      <trkpt lat="49.38357" lon="2.16607">
        <ele>184.111084</ele>
        <time>2020-10-03T07:41:02.591Z</time>
      </trkpt>
      <trkpt lat="49.38367" lon="2.16606">
        <ele>182.582642</ele>
        <time>2020-10-03T07:41:08.119Z</time>
      </trkpt>
      <trkpt lat="49.38379" lon="2.16604">
        <ele>184.329346</ele>
        <time>2020-10-03T07:41:13.609Z</time>
      </trkpt>
      <trkpt lat="49.38395" lon="2.166">
        <ele>186.495544</ele>
        <time>2020-10-03T07:41:19.570Z</time>
      </trkpt>
      <trkpt lat="49.38403" lon="2.166">
        <ele>186.530884</ele>
        <time>2020-10-03T07:41:24.610Z</time>
      </trkpt>
      <trkpt lat="49.38418" lon="2.16598">
        <ele>185.472961</ele>
        <time>2020-10-03T07:41:30.038Z</time>
      </trkpt>
      <trkpt lat="49.38441" lon="2.16595">
        <ele>148.498779</ele>
        <time>2020-10-03T07:41:35.668Z</time>
      </trkpt>
      <trkpt lat="49.38473" lon="2.16589">
        <ele>177.604736</ele>
        <time>2020-10-03T07:41:40.911Z</time>
      </trkpt>
      <trkpt lat="49.38489" lon="2.16592">
        <ele>183.034302</ele>
        <time>2020-10-03T07:41:46.471Z</time>
      </trkpt>
      <trkpt lat="49.385" lon="2.16595">
        <ele>184.899353</ele>
        <time>2020-10-03T07:41:51.560Z</time>
      </trkpt>
      <trkpt lat="49.38508" lon="2.16596">
        <ele>189.018066</ele>
        <time>2020-10-03T07:41:56.979Z</time>
      </trkpt>
      <trkpt lat="49.3852" lon="2.16594">
        <ele>188.316101</ele>
        <time>2020-10-03T07:42:02.413Z</time>
      </trkpt>
      <trkpt lat="49.38545" lon="2.16589">
        <ele>184.784546</ele>
        <time>2020-10-03T07:42:07.620Z</time>
      </trkpt>
      <trkpt lat="49.3857" lon="2.16585">
        <ele>180.499878</ele>
        <time>2020-10-03T07:42:12.909Z</time>
      </trkpt>
      <trkpt lat="49.38595" lon="2.16584">
        <ele>177.892944</ele>
        <time>2020-10-03T07:42:18.274Z</time>
      </trkpt>
      <trkpt lat="49.38622" lon="2.16583">
        <ele>175.084412</ele>
        <time>2020-10-03T07:42:23.627Z</time>
      </trkpt>
      <trkpt lat="49.38643" lon="2.16571">
        <ele>174.298096</ele>
        <time>2020-10-03T07:42:28.759Z</time>
      </trkpt>
      <trkpt lat="49.38665" lon="2.1656">
        <ele>173.498291</ele>
        <time>2020-10-03T07:42:34.216Z</time>
      </trkpt>
      <trkpt lat="49.38691" lon="2.16556">
        <ele>171.587158</ele>
        <time>2020-10-03T07:42:39.601Z</time>
      </trkpt>
      <trkpt lat="49.38715" lon="2.16553">
        <ele>167.341675</ele>
        <time>2020-10-03T07:42:44.725Z</time>
      </trkpt>
      <trkpt lat="49.38742" lon="2.16548">
        <ele>161.220215</ele>
        <time>2020-10-03T07:42:50.164Z</time>
      </trkpt>
      <trkpt lat="49.38768" lon="2.16547">
        <ele>157.740845</ele>
        <time>2020-10-03T07:42:55.579Z</time>
      </trkpt>
      <trkpt lat="49.38788" lon="2.16531">
        <ele>155.829468</ele>
        <time>2020-10-03T07:43:01.015Z</time>
      </trkpt>
      <trkpt lat="49.38798" lon="2.1651">
        <ele>155.950195</ele>
        <time>2020-10-03T07:43:06.329Z</time>
      </trkpt>
      <trkpt lat="49.38819" lon="2.16479">
        <ele>150.484558</ele>
        <time>2020-10-03T07:43:11.593Z</time>
      </trkpt>
      <trkpt lat="49.38852" lon="2.16455">
        <ele>144.36377</ele>
        <time>2020-10-03T07:43:17.630Z</time>
      </trkpt>
      <trkpt lat="49.38889" lon="2.16424">
        <ele>135.536743</ele>
        <time>2020-10-03T07:43:28.447Z</time>
      </trkpt>
      <trkpt lat="49.38905" lon="2.16412">
        <ele>131.117188</ele>
        <time>2020-10-03T07:43:33.616Z</time>
      </trkpt>
      <trkpt lat="49.38924" lon="2.16397">
        <ele>131.632446</ele>
        <time>2020-10-03T07:43:39.615Z</time>
      </trkpt>
      <trkpt lat="49.38944" lon="2.16384">
        <ele>133.004761</ele>
        <time>2020-10-03T07:43:45.066Z</time>
      </trkpt>
      <trkpt lat="49.38976" lon="2.1636">
        <ele>130.39917</ele>
        <time>2020-10-03T07:43:50.630Z</time>
      </trkpt>
      <trkpt lat="49.39011" lon="2.16339">
        <ele>125.370667</ele>
        <time>2020-10-03T07:43:56.601Z</time>
      </trkpt>
      <trkpt lat="49.39043" lon="2.16317">
        <ele>129.229431</ele>
        <time>2020-10-03T07:44:07.463Z</time>
      </trkpt>
      <trkpt lat="49.39065" lon="2.16301">
        <ele>123.299927</ele>
        <time>2020-10-03T07:44:12.597Z</time>
      </trkpt>
      <trkpt lat="49.3909" lon="2.16286">
        <ele>121.384033</ele>
        <time>2020-10-03T07:44:17.604Z</time>
      </trkpt>
      <trkpt lat="49.39117" lon="2.16269">
        <ele>118.981445</ele>
        <time>2020-10-03T07:44:23.583Z</time>
      </trkpt>
      <trkpt lat="49.39141" lon="2.16255">
        <ele>119.044189</ele>
        <time>2020-10-03T07:44:28.595Z</time>
      </trkpt>
      <trkpt lat="49.39165" lon="2.1624">
        <ele>118.388428</ele>
        <time>2020-10-03T07:44:33.636Z</time>
      </trkpt>
      <trkpt lat="49.39186" lon="2.16219">
        <ele>117.447021</ele>
        <time>2020-10-03T07:44:39.635Z</time>
      </trkpt>
      <trkpt lat="49.39196" lon="2.16202">
        <ele>126.048889</ele>
        <time>2020-10-03T07:44:45.592Z</time>
      </trkpt>
      <trkpt lat="49.39215" lon="2.16183">
        <ele>119.838318</ele>
        <time>2020-10-03T07:44:51.202Z</time>
      </trkpt>
      <trkpt lat="49.39232" lon="2.16165">
        <ele>115.125854</ele>
        <time>2020-10-03T07:44:56.520Z</time>
      </trkpt>
      <trkpt lat="49.39249" lon="2.16147">
        <ele>116.959351</ele>
        <time>2020-10-03T07:45:01.588Z</time>
      </trkpt>
      <trkpt lat="49.39265" lon="2.16128">
        <ele>116.311951</ele>
        <time>2020-10-03T07:45:06.787Z</time>
      </trkpt>
      <trkpt lat="49.39279" lon="2.16108">
        <ele>117.657593</ele>
        <time>2020-10-03T07:45:12.007Z</time>
      </trkpt>
      <trkpt lat="49.39291" lon="2.16085">
        <ele>118.471375</ele>
        <time>2020-10-03T07:45:17.411Z</time>
      </trkpt>
      <trkpt lat="49.393" lon="2.16059">
        <ele>117.994263</ele>
        <time>2020-10-03T07:45:22.574Z</time>
      </trkpt>
      <trkpt lat="49.39307" lon="2.16028">
        <ele>117.513184</ele>
        <time>2020-10-03T07:45:28.169Z</time>
      </trkpt>
      <trkpt lat="49.39311" lon="2.16004">
        <ele>119.6875</ele>
        <time>2020-10-03T07:45:33.188Z</time>
      </trkpt>
      <trkpt lat="49.39315" lon="2.15978">
        <ele>121.000427</ele>
        <time>2020-10-03T07:45:38.389Z</time>
      </trkpt>
      <trkpt lat="49.3932" lon="2.15953">
        <ele>122.720764</ele>
        <time>2020-10-03T07:45:44.029Z</time>
      </trkpt>
      <trkpt lat="49.39325" lon="2.15929">
        <ele>122.597229</ele>
        <time>2020-10-03T07:45:49.374Z</time>
      </trkpt>
      <trkpt lat="49.39331" lon="2.15908">
        <ele>124.01001</ele>
        <time>2020-10-03T07:45:54.591Z</time>
      </trkpt>
      <trkpt lat="49.39336" lon="2.15887">
        <ele>121.659546</ele>
        <time>2020-10-03T07:45:59.591Z</time>
      </trkpt>
      <trkpt lat="49.39342" lon="2.15869">
        <ele>121.142578</ele>
        <time>2020-10-03T07:46:04.624Z</time>
      </trkpt>
      <trkpt lat="49.39348" lon="2.15848">
        <ele>122.118103</ele>
        <time>2020-10-03T07:46:10.292Z</time>
      </trkpt>
      <trkpt lat="49.39355" lon="2.15827">
        <ele>125.254761</ele>
        <time>2020-10-03T07:46:15.598Z</time>
      </trkpt>
      <trkpt lat="49.39367" lon="2.15781">
        <ele>123.422424</ele>
        <time>2020-10-03T07:46:25.613Z</time>
      </trkpt>
      <trkpt lat="49.39385" lon="2.15745">
        <ele>130.562195</ele>
        <time>2020-10-03T07:46:34.129Z</time>
      </trkpt>
      <trkpt lat="49.39402" lon="2.15716">
        <ele>132.231323</ele>
        <time>2020-10-03T07:46:41.600Z</time>
      </trkpt>
      <trkpt lat="49.39418" lon="2.15691">
        <ele>126.924438</ele>
        <time>2020-10-03T07:46:46.930Z</time>
      </trkpt>
      <trkpt lat="49.39432" lon="2.15664">
        <ele>130.732056</ele>
        <time>2020-10-03T07:46:52.108Z</time>
      </trkpt>
      <trkpt lat="49.39449" lon="2.15641">
        <ele>131.075378</ele>
        <time>2020-10-03T07:46:57.580Z</time>
      </trkpt>
      <trkpt lat="49.39463" lon="2.1562">
        <ele>132.054077</ele>
        <time>2020-10-03T07:47:02.587Z</time>
      </trkpt>
      <trkpt lat="49.39478" lon="2.15595">
        <ele>131.250427</ele>
        <time>2020-10-03T07:47:08.579Z</time>
      </trkpt>
      <trkpt lat="49.39524" lon="2.15488">
        <ele>77</ele>
      </trkpt>
      <trkpt lat="49.39534" lon="2.15456">
        <ele>77.1</ele>
      </trkpt>
      <trkpt lat="49.39534" lon="2.15456">
        <ele>77.1</ele>
      </trkpt>
    </trkseg>
  </trk>
</gpx>